<?xml version="1.0" encoding="UTF-8"?>
<gpx xmlns="http://www.topografix.com/GPX/1/1" xmlns:xsi="http://www.w3.org/2001/XMLSchema-instance" version="1.1" xsi:schemaLocation="http://www.topografix.com/GPX/1/1 http://www.topografix.com/GPX/1/1/gpx.xsd">
  <metadata>
    <name>ALOHA TRI Linz</name>
  </metadata>
  <trk>
    <name>ALOHA TRI Linz</name>
    <trkseg>
      <trkpt lat="48.319124" lon="14.328906">
        <ele>252.508115</ele>
        <time>2026-07-05T09:15:00.000Z</time>
      </trkpt>
      <trkpt lat="48.319007" lon="14.329008">
        <ele>252.508098</ele>
        <time>2026-07-05T09:15:02.000Z</time>
      </trkpt>
      <trkpt lat="48.318607" lon="14.329324">
        <ele>252.508114</ele>
        <time>2026-07-05T09:15:07.000Z</time>
      </trkpt>
      <trkpt lat="48.316934" lon="14.330651">
        <ele>253.067294</ele>
        <time>2026-07-05T09:15:28.000Z</time>
      </trkpt>
      <trkpt lat="48.3167" lon="14.33094">
        <ele>253.167113</ele>
        <time>2026-07-05T09:15:31.000Z</time>
      </trkpt>
      <trkpt lat="48.31661" lon="14.331075">
        <ele>253.203548</ele>
        <time>2026-07-05T09:15:32.000Z</time>
      </trkpt>
      <trkpt lat="48.314158" lon="14.333065">
        <ele>253.681469</ele>
        <time>2026-07-05T09:16:03.000Z</time>
      </trkpt>
      <trkpt lat="48.31348" lon="14.333468">
        <ele>253.619323</ele>
        <time>2026-07-05T09:16:11.000Z</time>
      </trkpt>
      <trkpt lat="48.311743" lon="14.33435">
        <ele>252.554569</ele>
        <time>2026-07-05T09:16:31.000Z</time>
      </trkpt>
      <trkpt lat="48.310813" lon="14.334759">
        <ele>252.221827</ele>
        <time>2026-07-05T09:16:42.000Z</time>
      </trkpt>
      <trkpt lat="48.309989" lon="14.335103">
        <ele>252.442164</ele>
        <time>2026-07-05T09:16:52.000Z</time>
      </trkpt>
      <trkpt lat="48.308847" lon="14.335542">
        <ele>255.129124</ele>
        <time>2026-07-05T09:17:05.000Z</time>
      </trkpt>
      <trkpt lat="48.308734" lon="14.335603">
        <ele>255.399211</ele>
        <time>2026-07-05T09:17:06.000Z</time>
      </trkpt>
      <trkpt lat="48.308772" lon="14.335677">
        <ele>255.538792</ele>
        <time>2026-07-05T09:17:07.000Z</time>
      </trkpt>
      <trkpt lat="48.308688" lon="14.33573">
        <ele>255.72502</ele>
        <time>2026-07-05T09:17:08.000Z</time>
      </trkpt>
      <trkpt lat="48.308671" lon="14.335742">
        <ele>255.767573</ele>
        <time>2026-07-05T09:17:08.000Z</time>
      </trkpt>
      <trkpt lat="48.308598" lon="14.335793">
        <ele>255.976415</ele>
        <time>2026-07-05T09:17:09.000Z</time>
      </trkpt>
      <trkpt lat="48.308641" lon="14.336149">
        <ele>256.386829</ele>
        <time>2026-07-05T09:17:12.000Z</time>
      </trkpt>
      <trkpt lat="48.308653" lon="14.336324">
        <ele>256.569269</ele>
        <time>2026-07-05T09:17:13.000Z</time>
      </trkpt>
      <trkpt lat="48.308678" lon="14.336486">
        <ele>256.742809</ele>
        <time>2026-07-05T09:17:14.000Z</time>
      </trkpt>
      <trkpt lat="48.308182" lon="14.336589">
        <ele>257.49761</ele>
        <time>2026-07-05T09:17:20.000Z</time>
      </trkpt>
      <trkpt lat="48.308169" lon="14.336585">
        <ele>257.526593</ele>
        <time>2026-07-05T09:17:20.000Z</time>
      </trkpt>
      <trkpt lat="48.307664" lon="14.336692">
        <ele>258.305777</ele>
        <time>2026-07-05T09:17:26.000Z</time>
      </trkpt>
      <trkpt lat="48.305956" lon="14.337044">
        <ele>254.940184</ele>
        <time>2026-07-05T09:17:45.000Z</time>
      </trkpt>
      <trkpt lat="48.30544" lon="14.337234">
        <ele>253.662518</ele>
        <time>2026-07-05T09:17:51.000Z</time>
      </trkpt>
      <trkpt lat="48.304978" lon="14.337518">
        <ele>253.532097</ele>
        <time>2026-07-05T09:17:57.000Z</time>
      </trkpt>
      <trkpt lat="48.304578" lon="14.337838">
        <ele>253.416163</ele>
        <time>2026-07-05T09:18:02.000Z</time>
      </trkpt>
      <trkpt lat="48.304141" lon="14.338361">
        <ele>253.268937</ele>
        <time>2026-07-05T09:18:08.000Z</time>
      </trkpt>
      <trkpt lat="48.303743" lon="14.33894">
        <ele>253.610016</ele>
        <time>2026-07-05T09:18:14.000Z</time>
      </trkpt>
      <trkpt lat="48.303344" lon="14.33956">
        <ele>254.261042</ele>
        <time>2026-07-05T09:18:20.000Z</time>
      </trkpt>
      <trkpt lat="48.303069" lon="14.339915">
        <ele>254.645172</ele>
        <time>2026-07-05T09:18:24.000Z</time>
      </trkpt>
      <trkpt lat="48.302718" lon="14.340295">
        <ele>255.131699</ele>
        <time>2026-07-05T09:18:29.000Z</time>
      </trkpt>
      <trkpt lat="48.302244" lon="14.340699">
        <ele>255.733287</ele>
        <time>2026-07-05T09:18:35.000Z</time>
      </trkpt>
      <trkpt lat="48.301345" lon="14.341297">
        <ele>256.813676</ele>
        <time>2026-07-05T09:18:46.000Z</time>
      </trkpt>
      <trkpt lat="48.300422" lon="14.341919">
        <ele>256.332891</ele>
        <time>2026-07-05T09:18:57.000Z</time>
      </trkpt>
      <trkpt lat="48.299507" lon="14.342505">
        <ele>255.078322</ele>
        <time>2026-07-05T09:19:08.000Z</time>
      </trkpt>
      <trkpt lat="48.298966" lon="14.342752">
        <ele>254.844815</ele>
        <time>2026-07-05T09:19:14.000Z</time>
      </trkpt>
      <trkpt lat="48.298775" lon="14.342793">
        <ele>254.818324</ele>
        <time>2026-07-05T09:19:16.000Z</time>
      </trkpt>
      <trkpt lat="48.298428" lon="14.34284">
        <ele>254.769284</ele>
        <time>2026-07-05T09:19:20.000Z</time>
      </trkpt>
      <trkpt lat="48.298014" lon="14.342853">
        <ele>254.710501</ele>
        <time>2026-07-05T09:19:25.000Z</time>
      </trkpt>
      <trkpt lat="48.296894" lon="14.342597">
        <ele>255.056298</ele>
        <time>2026-07-05T09:19:38.000Z</time>
      </trkpt>
      <trkpt lat="48.296333" lon="14.342512">
        <ele>255.375638</ele>
        <time>2026-07-05T09:19:44.000Z</time>
      </trkpt>
      <trkpt lat="48.295994" lon="14.342511">
        <ele>255.574691</ele>
        <time>2026-07-05T09:19:48.000Z</time>
      </trkpt>
      <trkpt lat="48.295594" lon="14.342578">
        <ele>255.262673</ele>
        <time>2026-07-05T09:19:52.000Z</time>
      </trkpt>
      <trkpt lat="48.295223" lon="14.342716">
        <ele>254.56815</ele>
        <time>2026-07-05T09:19:56.000Z</time>
      </trkpt>
      <trkpt lat="48.294837" lon="14.342953">
        <ele>253.843338</ele>
        <time>2026-07-05T09:20:01.000Z</time>
      </trkpt>
      <trkpt lat="48.294407" lon="14.343375">
        <ele>252.917632</ele>
        <time>2026-07-05T09:20:07.000Z</time>
      </trkpt>
      <trkpt lat="48.293952" lon="14.343961">
        <ele>252.719242</ele>
        <time>2026-07-05T09:20:14.000Z</time>
      </trkpt>
      <trkpt lat="48.293398" lon="14.344617">
        <ele>253.298224</ele>
        <time>2026-07-05T09:20:22.000Z</time>
      </trkpt>
      <trkpt lat="48.293009" lon="14.344958">
        <ele>253.662057</ele>
        <time>2026-07-05T09:20:27.000Z</time>
      </trkpt>
      <trkpt lat="48.292961" lon="14.345007">
        <ele>253.704589</ele>
        <time>2026-07-05T09:20:28.000Z</time>
      </trkpt>
      <trkpt lat="48.292581" lon="14.345233">
        <ele>253.79541</ele>
        <time>2026-07-05T09:20:33.000Z</time>
      </trkpt>
      <trkpt lat="48.292215" lon="14.345366">
        <ele>253.560237</ele>
        <time>2026-07-05T09:20:37.000Z</time>
      </trkpt>
      <trkpt lat="48.29189" lon="14.345426">
        <ele>253.345198</ele>
        <time>2026-07-05T09:20:41.000Z</time>
      </trkpt>
      <trkpt lat="48.291579" lon="14.345405">
        <ele>253.157286</ele>
        <time>2026-07-05T09:20:44.000Z</time>
      </trkpt>
      <trkpt lat="48.291228" lon="14.345337">
        <ele>252.925648</ele>
        <time>2026-07-05T09:20:48.000Z</time>
      </trkpt>
      <trkpt lat="48.290943" lon="14.345327">
        <ele>252.776967</ele>
        <time>2026-07-05T09:20:51.000Z</time>
      </trkpt>
      <trkpt lat="48.290579" lon="14.345355">
        <ele>253.03301</ele>
        <time>2026-07-05T09:20:55.000Z</time>
      </trkpt>
      <trkpt lat="48.290138" lon="14.345493">
        <ele>253.36119</ele>
        <time>2026-07-05T09:21:00.000Z</time>
      </trkpt>
      <trkpt lat="48.289813" lon="14.345661">
        <ele>253.611476</ele>
        <time>2026-07-05T09:21:04.000Z</time>
      </trkpt>
      <trkpt lat="48.289748" lon="14.345723">
        <ele>253.673209</ele>
        <time>2026-07-05T09:21:05.000Z</time>
      </trkpt>
      <trkpt lat="48.289219" lon="14.346256">
        <ele>254.086867</ele>
        <time>2026-07-05T09:21:12.000Z</time>
      </trkpt>
      <trkpt lat="48.289057" lon="14.346481">
        <ele>254.140319</ele>
        <time>2026-07-05T09:21:14.000Z</time>
      </trkpt>
      <trkpt lat="48.288771" lon="14.346938">
        <ele>254.237207</ele>
        <time>2026-07-05T09:21:19.000Z</time>
      </trkpt>
      <trkpt lat="48.28838" lon="14.3477">
        <ele>254.389932</ele>
        <time>2026-07-05T09:21:26.000Z</time>
      </trkpt>
      <trkpt lat="48.288232" lon="14.347914">
        <ele>254.438533</ele>
        <time>2026-07-05T09:21:28.000Z</time>
      </trkpt>
      <trkpt lat="48.288046" lon="14.348185">
        <ele>254.425936</ele>
        <time>2026-07-05T09:21:31.000Z</time>
      </trkpt>
      <trkpt lat="48.287768" lon="14.348496">
        <ele>253.731536</ele>
        <time>2026-07-05T09:21:35.000Z</time>
      </trkpt>
      <trkpt lat="48.287045" lon="14.349068">
        <ele>252.131095</ele>
        <time>2026-07-05T09:21:44.000Z</time>
      </trkpt>
      <trkpt lat="48.286783" lon="14.349222">
        <ele>251.559434</ele>
        <time>2026-07-05T09:21:47.000Z</time>
      </trkpt>
      <trkpt lat="48.286395" lon="14.349485">
        <ele>250.785023</ele>
        <time>2026-07-05T09:21:52.000Z</time>
      </trkpt>
      <trkpt lat="48.285923" lon="14.349885">
        <ele>249.964836</ele>
        <time>2026-07-05T09:21:58.000Z</time>
      </trkpt>
      <trkpt lat="48.285759" lon="14.350151">
        <ele>249.595122</ele>
        <time>2026-07-05T09:22:01.000Z</time>
      </trkpt>
      <trkpt lat="48.285318" lon="14.350672">
        <ele>248.753541</ele>
        <time>2026-07-05T09:22:07.000Z</time>
      </trkpt>
      <trkpt lat="48.285166" lon="14.350884">
        <ele>248.46236</ele>
        <time>2026-07-05T09:22:09.000Z</time>
      </trkpt>
      <trkpt lat="48.285111" lon="14.350988">
        <ele>248.311804</ele>
        <time>2026-07-05T09:22:10.000Z</time>
      </trkpt>
      <trkpt lat="48.284837" lon="14.351478">
        <ele>248.152926</ele>
        <time>2026-07-05T09:22:15.000Z</time>
      </trkpt>
      <trkpt lat="48.284568" lon="14.352043">
        <ele>248.040896</ele>
        <time>2026-07-05T09:22:20.000Z</time>
      </trkpt>
      <trkpt lat="48.284366" lon="14.352541">
        <ele>247.948906</ele>
        <time>2026-07-05T09:22:24.000Z</time>
      </trkpt>
      <trkpt lat="48.284164" lon="14.353057">
        <ele>247.853794</ele>
        <time>2026-07-05T09:22:28.000Z</time>
      </trkpt>
      <trkpt lat="48.283799" lon="14.354095">
        <ele>247.55852</ele>
        <time>2026-07-05T09:22:37.000Z</time>
      </trkpt>
      <trkpt lat="48.283471" lon="14.355109">
        <ele>247.246953</ele>
        <time>2026-07-05T09:22:45.000Z</time>
      </trkpt>
      <trkpt lat="48.283283" lon="14.355783">
        <ele>247.089785</ele>
        <time>2026-07-05T09:22:50.000Z</time>
      </trkpt>
      <trkpt lat="48.283147" lon="14.356193">
        <ele>247.253606</ele>
        <time>2026-07-05T09:22:53.000Z</time>
      </trkpt>
      <trkpt lat="48.282854" lon="14.357351">
        <ele>247.711502</ele>
        <time>2026-07-05T09:23:02.000Z</time>
      </trkpt>
      <trkpt lat="48.282581" lon="14.358579">
        <ele>248.27378</ele>
        <time>2026-07-05T09:23:12.000Z</time>
      </trkpt>
      <trkpt lat="48.282461" lon="14.35925">
        <ele>248.694196</ele>
        <time>2026-07-05T09:23:17.000Z</time>
      </trkpt>
      <trkpt lat="48.282235" lon="14.360649">
        <ele>249.562267</ele>
        <time>2026-07-05T09:23:28.000Z</time>
      </trkpt>
      <trkpt lat="48.282034" lon="14.362104">
        <ele>249.772018</ele>
        <time>2026-07-05T09:23:39.000Z</time>
      </trkpt>
      <trkpt lat="48.281906" lon="14.362798">
        <ele>249.817431</ele>
        <time>2026-07-05T09:23:44.000Z</time>
      </trkpt>
      <trkpt lat="48.281839" lon="14.363257">
        <ele>249.84811</ele>
        <time>2026-07-05T09:23:47.000Z</time>
      </trkpt>
      <trkpt lat="48.28183" lon="14.363265">
        <ele>249.8481</ele>
        <time>2026-07-05T09:23:47.000Z</time>
      </trkpt>
      <trkpt lat="48.281835" lon="14.363264">
        <ele>249.84811</ele>
        <time>2026-07-05T09:23:47.000Z</time>
      </trkpt>
      <trkpt lat="48.281778" lon="14.364112">
        <ele>249.810999</ele>
        <time>2026-07-05T09:23:53.000Z</time>
      </trkpt>
      <trkpt lat="48.281703" lon="14.364953">
        <ele>249.739316</ele>
        <time>2026-07-05T09:23:59.000Z</time>
      </trkpt>
      <trkpt lat="48.281702" lon="14.365036">
        <ele>249.732254</ele>
        <time>2026-07-05T09:24:00.000Z</time>
      </trkpt>
      <trkpt lat="48.281713" lon="14.365052">
        <ele>249.728597</ele>
        <time>2026-07-05T09:24:00.000Z</time>
      </trkpt>
      <trkpt lat="48.281791" lon="14.365159">
        <ele>249.716671</ele>
        <time>2026-07-05T09:24:01.000Z</time>
      </trkpt>
      <trkpt lat="48.281782" lon="14.365168">
        <ele>249.716455</ele>
        <time>2026-07-05T09:24:01.000Z</time>
      </trkpt>
      <trkpt lat="48.281985" lon="14.365303">
        <ele>249.689321</ele>
        <time>2026-07-05T09:24:03.000Z</time>
      </trkpt>
      <trkpt lat="48.282509" lon="14.365455">
        <ele>249.695014</ele>
        <time>2026-07-05T09:24:09.000Z</time>
      </trkpt>
      <trkpt lat="48.282513" lon="14.365462">
        <ele>249.695018</ele>
        <time>2026-07-05T09:24:09.000Z</time>
      </trkpt>
      <trkpt lat="48.282761" lon="14.365475">
        <ele>249.841164</ele>
        <time>2026-07-05T09:24:12.000Z</time>
      </trkpt>
      <trkpt lat="48.282861" lon="14.365483">
        <ele>249.895806</ele>
        <time>2026-07-05T09:24:13.000Z</time>
      </trkpt>
      <trkpt lat="48.28287" lon="14.365467">
        <ele>249.895818</ele>
        <time>2026-07-05T09:24:13.000Z</time>
      </trkpt>
      <trkpt lat="48.282942" lon="14.365399">
        <ele>249.944751</ele>
        <time>2026-07-05T09:24:14.000Z</time>
      </trkpt>
      <trkpt lat="48.282973" lon="14.365287">
        <ele>249.995096</ele>
        <time>2026-07-05T09:24:15.000Z</time>
      </trkpt>
      <trkpt lat="48.282972" lon="14.365279">
        <ele>249.995087</ele>
        <time>2026-07-05T09:24:15.000Z</time>
      </trkpt>
      <trkpt lat="48.283068" lon="14.364802">
        <ele>250.178852</ele>
        <time>2026-07-05T09:24:19.000Z</time>
      </trkpt>
      <trkpt lat="48.283106" lon="14.364605">
        <ele>250.25467</ele>
        <time>2026-07-05T09:24:21.000Z</time>
      </trkpt>
      <trkpt lat="48.283215" lon="14.363855">
        <ele>250.544939</ele>
        <time>2026-07-05T09:24:27.000Z</time>
      </trkpt>
      <trkpt lat="48.283259" lon="14.363574">
        <ele>250.63231</ele>
        <time>2026-07-05T09:24:29.000Z</time>
      </trkpt>
      <trkpt lat="48.283269" lon="14.363438">
        <ele>250.606066</ele>
        <time>2026-07-05T09:24:30.000Z</time>
      </trkpt>
      <trkpt lat="48.28329" lon="14.363267">
        <ele>250.572196</ele>
        <time>2026-07-05T09:24:31.000Z</time>
      </trkpt>
      <trkpt lat="48.283307" lon="14.363139">
        <ele>250.548567</ele>
        <time>2026-07-05T09:24:32.000Z</time>
      </trkpt>
      <trkpt lat="48.283388" lon="14.362711">
        <ele>250.463143</ele>
        <time>2026-07-05T09:24:35.000Z</time>
      </trkpt>
      <trkpt lat="48.283437" lon="14.362493">
        <ele>250.420807</ele>
        <time>2026-07-05T09:24:37.000Z</time>
      </trkpt>
      <trkpt lat="48.283543" lon="14.361934">
        <ele>250.306482</ele>
        <time>2026-07-05T09:24:41.000Z</time>
      </trkpt>
      <trkpt lat="48.283614" lon="14.361618">
        <ele>250.243014</ele>
        <time>2026-07-05T09:24:43.000Z</time>
      </trkpt>
      <trkpt lat="48.283771" lon="14.360744">
        <ele>250.061804</ele>
        <time>2026-07-05T09:24:50.000Z</time>
      </trkpt>
      <trkpt lat="48.283804" lon="14.360628">
        <ele>250.035257</ele>
        <time>2026-07-05T09:24:51.000Z</time>
      </trkpt>
      <trkpt lat="48.283822" lon="14.360448">
        <ele>249.994528</ele>
        <time>2026-07-05T09:24:52.000Z</time>
      </trkpt>
      <trkpt lat="48.283925" lon="14.359956">
        <ele>249.879951</ele>
        <time>2026-07-05T09:24:56.000Z</time>
      </trkpt>
      <trkpt lat="48.284059" lon="14.359194">
        <ele>249.701351</ele>
        <time>2026-07-05T09:25:02.000Z</time>
      </trkpt>
      <trkpt lat="48.284066" lon="14.359132">
        <ele>249.685745</ele>
        <time>2026-07-05T09:25:02.000Z</time>
      </trkpt>
      <trkpt lat="48.284297" lon="14.3579">
        <ele>249.634202</ele>
        <time>2026-07-05T09:25:11.000Z</time>
      </trkpt>
      <trkpt lat="48.284376" lon="14.357469">
        <ele>249.738079</ele>
        <time>2026-07-05T09:25:14.000Z</time>
      </trkpt>
      <trkpt lat="48.284552" lon="14.356511">
        <ele>249.96337</ele>
        <time>2026-07-05T09:25:21.000Z</time>
      </trkpt>
      <trkpt lat="48.284602" lon="14.356203">
        <ele>250.037512</ele>
        <time>2026-07-05T09:25:23.000Z</time>
      </trkpt>
      <trkpt lat="48.284626" lon="14.354976">
        <ele>249.940113</ele>
        <time>2026-07-05T09:25:32.000Z</time>
      </trkpt>
      <trkpt lat="48.28464" lon="14.354746">
        <ele>249.878317</ele>
        <time>2026-07-05T09:25:34.000Z</time>
      </trkpt>
      <trkpt lat="48.284735" lon="14.353501">
        <ele>249.565451</ele>
        <time>2026-07-05T09:25:43.000Z</time>
      </trkpt>
      <trkpt lat="48.284796" lon="14.353138">
        <ele>249.473892</ele>
        <time>2026-07-05T09:25:46.000Z</time>
      </trkpt>
      <trkpt lat="48.284938" lon="14.35256">
        <ele>249.487516</ele>
        <time>2026-07-05T09:25:51.000Z</time>
      </trkpt>
      <trkpt lat="48.284976" lon="14.352434">
        <ele>249.494595</ele>
        <time>2026-07-05T09:25:52.000Z</time>
      </trkpt>
      <trkpt lat="48.285088" lon="14.35204">
        <ele>249.514573</ele>
        <time>2026-07-05T09:25:55.000Z</time>
      </trkpt>
      <trkpt lat="48.285252" lon="14.351465">
        <ele>249.544141</ele>
        <time>2026-07-05T09:26:00.000Z</time>
      </trkpt>
      <trkpt lat="48.285322" lon="14.351145">
        <ele>249.560208</ele>
        <time>2026-07-05T09:26:02.000Z</time>
      </trkpt>
      <trkpt lat="48.285311" lon="14.350957">
        <ele>249.56986</ele>
        <time>2026-07-05T09:26:03.000Z</time>
      </trkpt>
      <trkpt lat="48.285303" lon="14.35093">
        <ele>249.57039</ele>
        <time>2026-07-05T09:26:03.000Z</time>
      </trkpt>
      <trkpt lat="48.285312" lon="14.350678">
        <ele>249.582627</ele>
        <time>2026-07-05T09:26:05.000Z</time>
      </trkpt>
      <trkpt lat="48.285757" lon="14.350143">
        <ele>250.579482</ele>
        <time>2026-07-05T09:26:11.000Z</time>
      </trkpt>
      <trkpt lat="48.286005" lon="14.349951">
        <ele>251.185723</ele>
        <time>2026-07-05T09:26:14.000Z</time>
      </trkpt>
      <trkpt lat="48.286349" lon="14.349698">
        <ele>251.977339</ele>
        <time>2026-07-05T09:26:18.000Z</time>
      </trkpt>
      <trkpt lat="48.287244" lon="14.349056">
        <ele>253.822369</ele>
        <time>2026-07-05T09:26:29.000Z</time>
      </trkpt>
      <trkpt lat="48.287549" lon="14.348832">
        <ele>254.309576</ele>
        <time>2026-07-05T09:26:33.000Z</time>
      </trkpt>
      <trkpt lat="48.287814" lon="14.348598">
        <ele>254.729651</ele>
        <time>2026-07-05T09:26:36.000Z</time>
      </trkpt>
      <trkpt lat="48.288108" lon="14.348273">
        <ele>255.241331</ele>
        <time>2026-07-05T09:26:40.000Z</time>
      </trkpt>
      <trkpt lat="48.288331" lon="14.347939">
        <ele>255.698238</ele>
        <time>2026-07-05T09:26:44.000Z</time>
      </trkpt>
      <trkpt lat="48.288725" lon="14.347241">
        <ele>255.315369</ele>
        <time>2026-07-05T09:26:51.000Z</time>
      </trkpt>
      <trkpt lat="48.289096" lon="14.346581">
        <ele>254.626417</ele>
        <time>2026-07-05T09:26:57.000Z</time>
      </trkpt>
      <trkpt lat="48.289396" lon="14.346231">
        <ele>254.176302</ele>
        <time>2026-07-05T09:27:01.000Z</time>
      </trkpt>
      <trkpt lat="48.289573" lon="14.346006">
        <ele>253.895597</ele>
        <time>2026-07-05T09:27:04.000Z</time>
      </trkpt>
      <trkpt lat="48.28984" lon="14.345793">
        <ele>253.689331</ele>
        <time>2026-07-05T09:27:07.000Z</time>
      </trkpt>
      <trkpt lat="48.290208" lon="14.345576">
        <ele>253.616705</ele>
        <time>2026-07-05T09:27:11.000Z</time>
      </trkpt>
      <trkpt lat="48.290416" lon="14.345538">
        <ele>253.578294</ele>
        <time>2026-07-05T09:27:13.000Z</time>
      </trkpt>
      <trkpt lat="48.290866" lon="14.345444">
        <ele>253.497156</ele>
        <time>2026-07-05T09:27:18.000Z</time>
      </trkpt>
      <trkpt lat="48.291219" lon="14.345417">
        <ele>253.43035</ele>
        <time>2026-07-05T09:27:22.000Z</time>
      </trkpt>
      <trkpt lat="48.291587" lon="14.345406">
        <ele>253.404222</ele>
        <time>2026-07-05T09:27:26.000Z</time>
      </trkpt>
      <trkpt lat="48.291885" lon="14.345428">
        <ele>253.435183</ele>
        <time>2026-07-05T09:27:29.000Z</time>
      </trkpt>
      <trkpt lat="48.29221" lon="14.345362">
        <ele>253.470614</ele>
        <time>2026-07-05T09:27:33.000Z</time>
      </trkpt>
      <trkpt lat="48.292571" lon="14.345225">
        <ele>253.509345</ele>
        <time>2026-07-05T09:27:37.000Z</time>
      </trkpt>
      <trkpt lat="48.292956" lon="14.345006">
        <ele>253.552934</ele>
        <time>2026-07-05T09:27:42.000Z</time>
      </trkpt>
      <trkpt lat="48.293001" lon="14.344961">
        <ele>253.558427</ele>
        <time>2026-07-05T09:27:43.000Z</time>
      </trkpt>
      <trkpt lat="48.293393" lon="14.344624">
        <ele>253.48355</ele>
        <time>2026-07-05T09:27:48.000Z</time>
      </trkpt>
      <trkpt lat="48.293958" lon="14.343963">
        <ele>253.219094</ele>
        <time>2026-07-05T09:27:56.000Z</time>
      </trkpt>
      <trkpt lat="48.294419" lon="14.343359">
        <ele>252.996352</ele>
        <time>2026-07-05T09:28:03.000Z</time>
      </trkpt>
      <trkpt lat="48.294841" lon="14.34294">
        <ele>253.423717</ele>
        <time>2026-07-05T09:28:09.000Z</time>
      </trkpt>
      <trkpt lat="48.295221" lon="14.342712">
        <ele>254.136383</ele>
        <time>2026-07-05T09:28:14.000Z</time>
      </trkpt>
      <trkpt lat="48.295597" lon="14.342567">
        <ele>254.81924</ele>
        <time>2026-07-05T09:28:18.000Z</time>
      </trkpt>
      <trkpt lat="48.295994" lon="14.342519">
        <ele>255.511559</ele>
        <time>2026-07-05T09:28:22.000Z</time>
      </trkpt>
      <trkpt lat="48.296339" lon="14.342509">
        <ele>256.0506</ele>
        <time>2026-07-05T09:28:26.000Z</time>
      </trkpt>
      <trkpt lat="48.296898" lon="14.342596">
        <ele>255.427039</ele>
        <time>2026-07-05T09:28:32.000Z</time>
      </trkpt>
      <trkpt lat="48.298024" lon="14.34284">
        <ele>254.176728</ele>
        <time>2026-07-05T09:28:45.000Z</time>
      </trkpt>
      <trkpt lat="48.298442" lon="14.342853">
        <ele>254.415347</ele>
        <time>2026-07-05T09:28:50.000Z</time>
      </trkpt>
      <trkpt lat="48.298789" lon="14.342791">
        <ele>254.739015</ele>
        <time>2026-07-05T09:28:54.000Z</time>
      </trkpt>
      <trkpt lat="48.298974" lon="14.342748">
        <ele>254.913797</ele>
        <time>2026-07-05T09:28:56.000Z</time>
      </trkpt>
      <trkpt lat="48.299504" lon="14.342513">
        <ele>255.443437</ele>
        <time>2026-07-05T09:29:02.000Z</time>
      </trkpt>
      <trkpt lat="48.300416" lon="14.341916">
        <ele>256.222318</ele>
        <time>2026-07-05T09:29:13.000Z</time>
      </trkpt>
      <trkpt lat="48.300668" lon="14.341759">
        <ele>256.414753</ele>
        <time>2026-07-05T09:29:16.000Z</time>
      </trkpt>
      <trkpt lat="48.301341" lon="14.341307">
        <ele>256.928847</ele>
        <time>2026-07-05T09:29:24.000Z</time>
      </trkpt>
      <trkpt lat="48.302232" lon="14.340685">
        <ele>255.850036</ele>
        <time>2026-07-05T09:29:35.000Z</time>
      </trkpt>
      <trkpt lat="48.30271" lon="14.340297">
        <ele>255.064934</ele>
        <time>2026-07-05T09:29:41.000Z</time>
      </trkpt>
      <trkpt lat="48.303071" lon="14.339913">
        <ele>254.44632</ele>
        <time>2026-07-05T09:29:46.000Z</time>
      </trkpt>
      <trkpt lat="48.303334" lon="14.339566">
        <ele>254.167276</ele>
        <time>2026-07-05T09:29:50.000Z</time>
      </trkpt>
      <trkpt lat="48.30375" lon="14.338936">
        <ele>253.69433</ele>
        <time>2026-07-05T09:29:57.000Z</time>
      </trkpt>
      <trkpt lat="48.304145" lon="14.338355">
        <ele>253.254113</ele>
        <time>2026-07-05T09:30:03.000Z</time>
      </trkpt>
      <trkpt lat="48.304592" lon="14.337848">
        <ele>253.277888</ele>
        <time>2026-07-05T09:30:09.000Z</time>
      </trkpt>
      <trkpt lat="48.30497" lon="14.337525">
        <ele>253.713678</ele>
        <time>2026-07-05T09:30:14.000Z</time>
      </trkpt>
      <trkpt lat="48.30544" lon="14.33723">
        <ele>254.204069</ele>
        <time>2026-07-05T09:30:20.000Z</time>
      </trkpt>
      <trkpt lat="48.30596" lon="14.337044">
        <ele>254.733984</ele>
        <time>2026-07-05T09:30:26.000Z</time>
      </trkpt>
      <trkpt lat="48.307648" lon="14.336704">
        <ele>260.270863</ele>
        <time>2026-07-05T09:30:45.000Z</time>
      </trkpt>
      <trkpt lat="48.308169" lon="14.336594">
        <ele>260.697453</ele>
        <time>2026-07-05T09:30:51.000Z</time>
      </trkpt>
      <trkpt lat="48.308182" lon="14.336582">
        <ele>260.696513</ele>
        <time>2026-07-05T09:30:51.000Z</time>
      </trkpt>
      <trkpt lat="48.308685" lon="14.336499">
        <ele>260.672274</ele>
        <time>2026-07-05T09:30:57.000Z</time>
      </trkpt>
      <trkpt lat="48.308758" lon="14.33648">
        <ele>260.668854</ele>
        <time>2026-07-05T09:30:58.000Z</time>
      </trkpt>
      <trkpt lat="48.308973" lon="14.336424">
        <ele>260.657532</ele>
        <time>2026-07-05T09:31:00.000Z</time>
      </trkpt>
      <trkpt lat="48.309427" lon="14.336345">
        <ele>260.63557</ele>
        <time>2026-07-05T09:31:05.000Z</time>
      </trkpt>
      <trkpt lat="48.310103" lon="14.3362">
        <ele>259.299972</ele>
        <time>2026-07-05T09:31:13.000Z</time>
      </trkpt>
      <trkpt lat="48.310621" lon="14.336059">
        <ele>257.98691</ele>
        <time>2026-07-05T09:31:19.000Z</time>
      </trkpt>
      <trkpt lat="48.311028" lon="14.335873">
        <ele>256.969271</ele>
        <time>2026-07-05T09:31:24.000Z</time>
      </trkpt>
      <trkpt lat="48.311748" lon="14.33543">
        <ele>256.708048</ele>
        <time>2026-07-05T09:31:33.000Z</time>
      </trkpt>
      <trkpt lat="48.312274" lon="14.335138">
        <ele>257.334368</ele>
        <time>2026-07-05T09:31:39.000Z</time>
      </trkpt>
      <trkpt lat="48.312693" lon="14.33505">
        <ele>257.785775</ele>
        <time>2026-07-05T09:31:44.000Z</time>
      </trkpt>
      <trkpt lat="48.312738" lon="14.335047">
        <ele>257.852445</ele>
        <time>2026-07-05T09:31:45.000Z</time>
      </trkpt>
      <trkpt lat="48.313093" lon="14.335046">
        <ele>258.374254</ele>
        <time>2026-07-05T09:31:49.000Z</time>
      </trkpt>
      <trkpt lat="48.313354" lon="14.335085">
        <ele>259.192199</ele>
        <time>2026-07-05T09:31:52.000Z</time>
      </trkpt>
      <trkpt lat="48.313638" lon="14.335189">
        <ele>260.132006</ele>
        <time>2026-07-05T09:31:55.000Z</time>
      </trkpt>
      <trkpt lat="48.313882" lon="14.335315">
        <ele>260.996674</ele>
        <time>2026-07-05T09:31:58.000Z</time>
      </trkpt>
      <trkpt lat="48.314263" lon="14.335569">
        <ele>262.314725</ele>
        <time>2026-07-05T09:32:03.000Z</time>
      </trkpt>
      <trkpt lat="48.314488" lon="14.33582">
        <ele>263.248973</ele>
        <time>2026-07-05T09:32:06.000Z</time>
      </trkpt>
      <trkpt lat="48.31489" lon="14.336274">
        <ele>263.71327</ele>
        <time>2026-07-05T09:32:12.000Z</time>
      </trkpt>
      <trkpt lat="48.315264" lon="14.336728">
        <ele>263.154514</ele>
        <time>2026-07-05T09:32:17.000Z</time>
      </trkpt>
      <trkpt lat="48.315313" lon="14.33677">
        <ele>263.095584</ele>
        <time>2026-07-05T09:32:18.000Z</time>
      </trkpt>
      <trkpt lat="48.315585" lon="14.337043">
        <ele>262.712325</ele>
        <time>2026-07-05T09:32:22.000Z</time>
      </trkpt>
      <trkpt lat="48.315664" lon="14.337105">
        <ele>262.604623</ele>
        <time>2026-07-05T09:32:23.000Z</time>
      </trkpt>
      <trkpt lat="48.31587" lon="14.337266">
        <ele>262.336234</ele>
        <time>2026-07-05T09:32:26.000Z</time>
      </trkpt>
      <trkpt lat="48.316633" lon="14.337791">
        <ele>260.302798</ele>
        <time>2026-07-05T09:32:35.000Z</time>
      </trkpt>
      <trkpt lat="48.317203" lon="14.338108">
        <ele>258.278592</ele>
        <time>2026-07-05T09:32:42.000Z</time>
      </trkpt>
      <trkpt lat="48.317455" lon="14.338251">
        <ele>257.408167</ele>
        <time>2026-07-05T09:32:45.000Z</time>
      </trkpt>
      <trkpt lat="48.318286" lon="14.338717">
        <ele>256.395047</ele>
        <time>2026-07-05T09:32:55.000Z</time>
      </trkpt>
      <trkpt lat="48.318654" lon="14.338908">
        <ele>256.747669</ele>
        <time>2026-07-05T09:32:59.000Z</time>
      </trkpt>
      <trkpt lat="48.318888" lon="14.339045">
        <ele>256.980042</ele>
        <time>2026-07-05T09:33:02.000Z</time>
      </trkpt>
      <trkpt lat="48.319082" lon="14.339158">
        <ele>257.167082</ele>
        <time>2026-07-05T09:33:04.000Z</time>
      </trkpt>
      <trkpt lat="48.319121" lon="14.339183">
        <ele>257.214754</ele>
        <time>2026-07-05T09:33:04.000Z</time>
      </trkpt>
      <trkpt lat="48.319169" lon="14.3392">
        <ele>257.258372</ele>
        <time>2026-07-05T09:33:05.000Z</time>
      </trkpt>
      <trkpt lat="48.319237" lon="14.339244">
        <ele>257.320897</ele>
        <time>2026-07-05T09:33:06.000Z</time>
      </trkpt>
      <trkpt lat="48.319448" lon="14.339378">
        <ele>257.532208</ele>
        <time>2026-07-05T09:33:09.000Z</time>
      </trkpt>
      <trkpt lat="48.319537" lon="14.339412">
        <ele>257.616408</ele>
        <time>2026-07-05T09:33:10.000Z</time>
      </trkpt>
      <trkpt lat="48.319683" lon="14.339512">
        <ele>258.107576</ele>
        <time>2026-07-05T09:33:12.000Z</time>
      </trkpt>
      <trkpt lat="48.319773" lon="14.339586">
        <ele>258.432019</ele>
        <time>2026-07-05T09:33:13.000Z</time>
      </trkpt>
      <trkpt lat="48.320014" lon="14.339825">
        <ele>259.303056</ele>
        <time>2026-07-05T09:33:16.000Z</time>
      </trkpt>
      <trkpt lat="48.320286" lon="14.340103">
        <ele>260.342007</ele>
        <time>2026-07-05T09:33:20.000Z</time>
      </trkpt>
      <trkpt lat="48.320616" lon="14.340457">
        <ele>261.617899</ele>
        <time>2026-07-05T09:33:25.000Z</time>
      </trkpt>
      <trkpt lat="48.320902" lon="14.340757">
        <ele>262.707226</ele>
        <time>2026-07-05T09:33:29.000Z</time>
      </trkpt>
      <trkpt lat="48.321118" lon="14.340905">
        <ele>263.167981</ele>
        <time>2026-07-05T09:33:32.000Z</time>
      </trkpt>
      <trkpt lat="48.321453" lon="14.340957">
        <ele>262.647318</ele>
        <time>2026-07-05T09:33:36.000Z</time>
      </trkpt>
      <trkpt lat="48.321699" lon="14.340908">
        <ele>262.259552</ele>
        <time>2026-07-05T09:33:39.000Z</time>
      </trkpt>
      <trkpt lat="48.32178" lon="14.340868">
        <ele>262.123118</ele>
        <time>2026-07-05T09:33:40.000Z</time>
      </trkpt>
      <trkpt lat="48.322132" lon="14.340761">
        <ele>261.551217</ele>
        <time>2026-07-05T09:33:44.000Z</time>
      </trkpt>
      <trkpt lat="48.32215" lon="14.340752">
        <ele>261.504436</ele>
        <time>2026-07-05T09:33:44.000Z</time>
      </trkpt>
      <trkpt lat="48.322206" lon="14.340744">
        <ele>261.417501</ele>
        <time>2026-07-05T09:33:45.000Z</time>
      </trkpt>
      <trkpt lat="48.322521" lon="14.340643">
        <ele>260.920849</ele>
        <time>2026-07-05T09:33:49.000Z</time>
      </trkpt>
      <trkpt lat="48.322734" lon="14.340551">
        <ele>260.561447</ele>
        <time>2026-07-05T09:33:51.000Z</time>
      </trkpt>
      <trkpt lat="48.322758" lon="14.340541">
        <ele>260.521487</ele>
        <time>2026-07-05T09:33:51.000Z</time>
      </trkpt>
      <trkpt lat="48.322824" lon="14.340507">
        <ele>260.421148</ele>
        <time>2026-07-05T09:33:52.000Z</time>
      </trkpt>
      <trkpt lat="48.322886" lon="14.34047">
        <ele>260.340314</ele>
        <time>2026-07-05T09:33:53.000Z</time>
      </trkpt>
      <trkpt lat="48.322944" lon="14.340442">
        <ele>260.251217</ele>
        <time>2026-07-05T09:33:54.000Z</time>
      </trkpt>
      <trkpt lat="48.323072" lon="14.340363">
        <ele>260.0854</ele>
        <time>2026-07-05T09:33:56.000Z</time>
      </trkpt>
      <trkpt lat="48.323133" lon="14.340327">
        <ele>260.015069</ele>
        <time>2026-07-05T09:33:57.000Z</time>
      </trkpt>
      <trkpt lat="48.323338" lon="14.340198">
        <ele>259.731432</ele>
        <time>2026-07-05T09:33:59.000Z</time>
      </trkpt>
      <trkpt lat="48.323401" lon="14.340145">
        <ele>259.621734</ele>
        <time>2026-07-05T09:34:00.000Z</time>
      </trkpt>
      <trkpt lat="48.323556" lon="14.340029">
        <ele>259.41245</ele>
        <time>2026-07-05T09:34:02.000Z</time>
      </trkpt>
      <trkpt lat="48.323587" lon="14.340005">
        <ele>259.359102</ele>
        <time>2026-07-05T09:34:02.000Z</time>
      </trkpt>
      <trkpt lat="48.323869" lon="14.339785">
        <ele>258.968681</ele>
        <time>2026-07-05T09:34:06.000Z</time>
      </trkpt>
      <trkpt lat="48.324069" lon="14.339622">
        <ele>258.686104</ele>
        <time>2026-07-05T09:34:09.000Z</time>
      </trkpt>
      <trkpt lat="48.324123" lon="14.339582">
        <ele>258.613179</ele>
        <time>2026-07-05T09:34:10.000Z</time>
      </trkpt>
      <trkpt lat="48.324457" lon="14.339334">
        <ele>258.169241</ele>
        <time>2026-07-05T09:34:14.000Z</time>
      </trkpt>
      <trkpt lat="48.324578" lon="14.339225">
        <ele>258.220556</ele>
        <time>2026-07-05T09:34:16.000Z</time>
      </trkpt>
      <trkpt lat="48.324655" lon="14.339182">
        <ele>258.250022</ele>
        <time>2026-07-05T09:34:17.000Z</time>
      </trkpt>
      <trkpt lat="48.324775" lon="14.339096">
        <ele>258.295712</ele>
        <time>2026-07-05T09:34:18.000Z</time>
      </trkpt>
      <trkpt lat="48.325744" lon="14.338592">
        <ele>258.645093</ele>
        <time>2026-07-05T09:34:29.000Z</time>
      </trkpt>
      <trkpt lat="48.325859" lon="14.338525">
        <ele>258.690548</ele>
        <time>2026-07-05T09:34:30.000Z</time>
      </trkpt>
      <trkpt lat="48.326098" lon="14.338314">
        <ele>258.783562</ele>
        <time>2026-07-05T09:34:33.000Z</time>
      </trkpt>
      <trkpt lat="48.32615" lon="14.338254">
        <ele>258.810842</ele>
        <time>2026-07-05T09:34:34.000Z</time>
      </trkpt>
      <trkpt lat="48.326229" lon="14.338152">
        <ele>258.853155</ele>
        <time>2026-07-05T09:34:35.000Z</time>
      </trkpt>
      <trkpt lat="48.326282" lon="14.338065">
        <ele>258.883791</ele>
        <time>2026-07-05T09:34:36.000Z</time>
      </trkpt>
      <trkpt lat="48.326389" lon="14.337935">
        <ele>258.934876</ele>
        <time>2026-07-05T09:34:38.000Z</time>
      </trkpt>
      <trkpt lat="48.32651" lon="14.337657">
        <ele>259.027294</ele>
        <time>2026-07-05T09:34:40.000Z</time>
      </trkpt>
      <trkpt lat="48.326549" lon="14.337581">
        <ele>259.048761</ele>
        <time>2026-07-05T09:34:41.000Z</time>
      </trkpt>
      <trkpt lat="48.326592" lon="14.337462">
        <ele>259.083859</ele>
        <time>2026-07-05T09:34:42.000Z</time>
      </trkpt>
      <trkpt lat="48.326949" lon="14.336348">
        <ele>259.414613</ele>
        <time>2026-07-05T09:34:51.000Z</time>
      </trkpt>
      <trkpt lat="48.327074" lon="14.336136">
        <ele>259.491156</ele>
        <time>2026-07-05T09:34:53.000Z</time>
      </trkpt>
      <trkpt lat="48.327291" lon="14.335874">
        <ele>259.629946</ele>
        <time>2026-07-05T09:34:56.000Z</time>
      </trkpt>
      <trkpt lat="48.327424" lon="14.335696">
        <ele>259.7177</ele>
        <time>2026-07-05T09:34:58.000Z</time>
      </trkpt>
      <trkpt lat="48.327551" lon="14.335403">
        <ele>259.832372</ele>
        <time>2026-07-05T09:35:01.000Z</time>
      </trkpt>
      <trkpt lat="48.327627" lon="14.335071">
        <ele>259.945493</ele>
        <time>2026-07-05T09:35:04.000Z</time>
      </trkpt>
      <trkpt lat="48.327634" lon="14.334822">
        <ele>260.032585</ele>
        <time>2026-07-05T09:35:06.000Z</time>
      </trkpt>
      <trkpt lat="48.327648" lon="14.334688">
        <ele>260.071128</ele>
        <time>2026-07-05T09:35:07.000Z</time>
      </trkpt>
      <trkpt lat="48.327657" lon="14.334642">
        <ele>260.091088</ele>
        <time>2026-07-05T09:35:07.000Z</time>
      </trkpt>
      <trkpt lat="48.327651" lon="14.334565">
        <ele>260.113027</ele>
        <time>2026-07-05T09:35:08.000Z</time>
      </trkpt>
      <trkpt lat="48.327668" lon="14.334486">
        <ele>260.13931</ele>
        <time>2026-07-05T09:35:09.000Z</time>
      </trkpt>
      <trkpt lat="48.32773" lon="14.334496">
        <ele>260.177387</ele>
        <time>2026-07-05T09:35:10.000Z</time>
      </trkpt>
      <trkpt lat="48.328137" lon="14.334569">
        <ele>260.375092</ele>
        <time>2026-07-05T09:35:15.000Z</time>
      </trkpt>
      <trkpt lat="48.328317" lon="14.334584">
        <ele>260.735733</ele>
        <time>2026-07-05T09:35:17.000Z</time>
      </trkpt>
      <trkpt lat="48.328389" lon="14.334587">
        <ele>260.885335</ele>
        <time>2026-07-05T09:35:18.000Z</time>
      </trkpt>
      <trkpt lat="48.328537" lon="14.334542">
        <ele>261.271678</ele>
        <time>2026-07-05T09:35:20.000Z</time>
      </trkpt>
      <trkpt lat="48.328865" lon="14.334409">
        <ele>262.031932</ele>
        <time>2026-07-05T09:35:24.000Z</time>
      </trkpt>
      <trkpt lat="48.329203" lon="14.334197">
        <ele>262.894817</ele>
        <time>2026-07-05T09:35:28.000Z</time>
      </trkpt>
      <trkpt lat="48.329583" lon="14.333893">
        <ele>263.901315</ele>
        <time>2026-07-05T09:35:33.000Z</time>
      </trkpt>
      <trkpt lat="48.329644" lon="14.333838">
        <ele>264.085895</ele>
        <time>2026-07-05T09:35:34.000Z</time>
      </trkpt>
      <trkpt lat="48.329792" lon="14.333737">
        <ele>264.449519</ele>
        <time>2026-07-05T09:35:36.000Z</time>
      </trkpt>
      <trkpt lat="48.330013" lon="14.333544">
        <ele>266.051402</ele>
        <time>2026-07-05T09:35:39.000Z</time>
      </trkpt>
      <trkpt lat="48.330065" lon="14.333525">
        <ele>266.391124</ele>
        <time>2026-07-05T09:35:40.000Z</time>
      </trkpt>
      <trkpt lat="48.330534" lon="14.33317">
        <ele>270.317897</ele>
        <time>2026-07-05T09:35:46.000Z</time>
      </trkpt>
      <trkpt lat="48.330763" lon="14.333032">
        <ele>272.140411</ele>
        <time>2026-07-05T09:35:49.000Z</time>
      </trkpt>
      <trkpt lat="48.330881" lon="14.332988">
        <ele>273.003951</ele>
        <time>2026-07-05T09:35:50.000Z</time>
      </trkpt>
      <trkpt lat="48.330989" lon="14.332936">
        <ele>273.826234</ele>
        <time>2026-07-05T09:35:51.000Z</time>
      </trkpt>
      <trkpt lat="48.331735" lon="14.332852">
        <ele>278.7635</ele>
        <time>2026-07-05T09:35:59.000Z</time>
      </trkpt>
      <trkpt lat="48.332572" lon="14.332932">
        <ele>282.211622</ele>
        <time>2026-07-05T09:36:08.000Z</time>
      </trkpt>
      <trkpt lat="48.33326" lon="14.332875">
        <ele>285.014063</ele>
        <time>2026-07-05T09:36:16.000Z</time>
      </trkpt>
      <trkpt lat="48.333369" lon="14.332912">
        <ele>285.331583</ele>
        <time>2026-07-05T09:36:17.000Z</time>
      </trkpt>
      <trkpt lat="48.33392" lon="14.33316">
        <ele>285.357498</ele>
        <time>2026-07-05T09:36:23.000Z</time>
      </trkpt>
      <trkpt lat="48.334403" lon="14.333131">
        <ele>285.379026</ele>
        <time>2026-07-05T09:36:28.000Z</time>
      </trkpt>
      <trkpt lat="48.334649" lon="14.333101">
        <ele>285.389786</ele>
        <time>2026-07-05T09:36:31.000Z</time>
      </trkpt>
      <trkpt lat="48.334824" lon="14.333124">
        <ele>285.397901</ele>
        <time>2026-07-05T09:36:33.000Z</time>
      </trkpt>
      <trkpt lat="48.335086" lon="14.33333">
        <ele>285.439339</ele>
        <time>2026-07-05T09:36:36.000Z</time>
      </trkpt>
      <trkpt lat="48.335302" lon="14.333663">
        <ele>285.820395</ele>
        <time>2026-07-05T09:36:39.000Z</time>
      </trkpt>
      <trkpt lat="48.33601" lon="14.334967">
        <ele>287.240089</ele>
        <time>2026-07-05T09:36:51.000Z</time>
      </trkpt>
      <trkpt lat="48.336076" lon="14.335086">
        <ele>287.371166</ele>
        <time>2026-07-05T09:36:52.000Z</time>
      </trkpt>
      <trkpt lat="48.336107" lon="14.335159">
        <ele>287.451525</ele>
        <time>2026-07-05T09:36:53.000Z</time>
      </trkpt>
      <trkpt lat="48.336211" lon="14.335328">
        <ele>287.639772</ele>
        <time>2026-07-05T09:36:55.000Z</time>
      </trkpt>
      <trkpt lat="48.336952" lon="14.336727">
        <ele>291.090775</ele>
        <time>2026-07-05T09:37:08.000Z</time>
      </trkpt>
      <trkpt lat="48.337" lon="14.336809">
        <ele>291.307309</ele>
        <time>2026-07-05T09:37:09.000Z</time>
      </trkpt>
      <trkpt lat="48.337084" lon="14.336714">
        <ele>291.635286</ele>
        <time>2026-07-05T09:37:10.000Z</time>
      </trkpt>
      <trkpt lat="48.337084" lon="14.336743">
        <ele>291.679568</ele>
        <time>2026-07-05T09:37:10.000Z</time>
      </trkpt>
      <trkpt lat="48.337087" lon="14.336857">
        <ele>291.915863</ele>
        <time>2026-07-05T09:37:11.000Z</time>
      </trkpt>
      <trkpt lat="48.337261" lon="14.337443">
        <ele>293.280146</ele>
        <time>2026-07-05T09:37:16.000Z</time>
      </trkpt>
      <trkpt lat="48.337368" lon="14.338139">
        <ele>296.036939</ele>
        <time>2026-07-05T09:37:21.000Z</time>
      </trkpt>
      <trkpt lat="48.337407" lon="14.33926">
        <ele>300.372598</ele>
        <time>2026-07-05T09:37:29.000Z</time>
      </trkpt>
      <trkpt lat="48.337407" lon="14.339272">
        <ele>300.387891</ele>
        <time>2026-07-05T09:37:29.000Z</time>
      </trkpt>
      <trkpt lat="48.337454" lon="14.340694">
        <ele>305.489746</ele>
        <time>2026-07-05T09:37:40.000Z</time>
      </trkpt>
      <trkpt lat="48.33751" lon="14.340963">
        <ele>306.448562</ele>
        <time>2026-07-05T09:37:42.000Z</time>
      </trkpt>
      <trkpt lat="48.337549" lon="14.341094">
        <ele>306.933045</ele>
        <time>2026-07-05T09:37:43.000Z</time>
      </trkpt>
      <trkpt lat="48.337848" lon="14.341509">
        <ele>308.915428</ele>
        <time>2026-07-05T09:37:48.000Z</time>
      </trkpt>
      <trkpt lat="48.337816" lon="14.341561">
        <ele>309.100834</ele>
        <time>2026-07-05T09:37:49.000Z</time>
      </trkpt>
      <trkpt lat="48.337967" lon="14.341741">
        <ele>310.046301</ele>
        <time>2026-07-05T09:37:51.000Z</time>
      </trkpt>
      <trkpt lat="48.338025" lon="14.341829">
        <ele>310.505656</ele>
        <time>2026-07-05T09:37:52.000Z</time>
      </trkpt>
      <trkpt lat="48.33826" lon="14.342146">
        <ele>312.052953</ele>
        <time>2026-07-05T09:37:56.000Z</time>
      </trkpt>
      <trkpt lat="48.338426" lon="14.342425">
        <ele>313.110415</ele>
        <time>2026-07-05T09:37:59.000Z</time>
      </trkpt>
      <trkpt lat="48.338495" lon="14.342538">
        <ele>313.528051</ele>
        <time>2026-07-05T09:38:00.000Z</time>
      </trkpt>
      <trkpt lat="48.338562" lon="14.342909">
        <ele>314.516462</ele>
        <time>2026-07-05T09:38:03.000Z</time>
      </trkpt>
      <trkpt lat="48.338541" lon="14.34315">
        <ele>315.152585</ele>
        <time>2026-07-05T09:38:05.000Z</time>
      </trkpt>
      <trkpt lat="48.338453" lon="14.343449">
        <ele>316.027788</ele>
        <time>2026-07-05T09:38:07.000Z</time>
      </trkpt>
      <trkpt lat="48.338431" lon="14.343496">
        <ele>316.204903</ele>
        <time>2026-07-05T09:38:07.000Z</time>
      </trkpt>
      <trkpt lat="48.338401" lon="14.343539">
        <ele>316.378768</ele>
        <time>2026-07-05T09:38:07.000Z</time>
      </trkpt>
      <trkpt lat="48.337716" lon="14.344197">
        <ele>319.668499</ele>
        <time>2026-07-05T09:38:16.000Z</time>
      </trkpt>
      <trkpt lat="48.337244" lon="14.344642">
        <ele>323.713287</ele>
        <time>2026-07-05T09:38:22.000Z</time>
      </trkpt>
      <trkpt lat="48.337084" lon="14.344855">
        <ele>325.270135</ele>
        <time>2026-07-05T09:38:24.000Z</time>
      </trkpt>
      <trkpt lat="48.336961" lon="14.345173">
        <ele>326.95944</ele>
        <time>2026-07-05T09:38:27.000Z</time>
      </trkpt>
      <trkpt lat="48.336908" lon="14.34555">
        <ele>328.803157</ele>
        <time>2026-07-05T09:38:30.000Z</time>
      </trkpt>
      <trkpt lat="48.336868" lon="14.346568">
        <ele>333.42845</ele>
        <time>2026-07-05T09:38:38.000Z</time>
      </trkpt>
      <trkpt lat="48.336745" lon="14.347158">
        <ele>335.83633</ele>
        <time>2026-07-05T09:38:43.000Z</time>
      </trkpt>
      <trkpt lat="48.335909" lon="14.349983">
        <ele>346.44355</ele>
        <time>2026-07-05T09:39:06.000Z</time>
      </trkpt>
      <trkpt lat="48.335856" lon="14.350489">
        <ele>347.861665</ele>
        <time>2026-07-05T09:39:10.000Z</time>
      </trkpt>
      <trkpt lat="48.335845" lon="14.35107">
        <ele>349.442062</ele>
        <time>2026-07-05T09:39:14.000Z</time>
      </trkpt>
      <trkpt lat="48.335837" lon="14.351423">
        <ele>350.401674</ele>
        <time>2026-07-05T09:39:17.000Z</time>
      </trkpt>
      <trkpt lat="48.335811" lon="14.352388">
        <ele>351.029937</ele>
        <time>2026-07-05T09:39:24.000Z</time>
      </trkpt>
      <trkpt lat="48.335806" lon="14.352489">
        <ele>351.090283</ele>
        <time>2026-07-05T09:39:25.000Z</time>
      </trkpt>
      <trkpt lat="48.335802" lon="14.353186">
        <ele>351.540668</ele>
        <time>2026-07-05T09:39:30.000Z</time>
      </trkpt>
      <trkpt lat="48.335792" lon="14.353755">
        <ele>351.908496</ele>
        <time>2026-07-05T09:39:34.000Z</time>
      </trkpt>
      <trkpt lat="48.335855" lon="14.354097">
        <ele>352.135429</ele>
        <time>2026-07-05T09:39:37.000Z</time>
      </trkpt>
      <trkpt lat="48.33596" lon="14.354459">
        <ele>351.924542</ele>
        <time>2026-07-05T09:39:40.000Z</time>
      </trkpt>
      <trkpt lat="48.336154" lon="14.354864">
        <ele>351.60778</ele>
        <time>2026-07-05T09:39:44.000Z</time>
      </trkpt>
      <trkpt lat="48.33645" lon="14.355357">
        <ele>351.196386</ele>
        <time>2026-07-05T09:39:49.000Z</time>
      </trkpt>
      <trkpt lat="48.336612" lon="14.355793">
        <ele>350.885359</ele>
        <time>2026-07-05T09:39:53.000Z</time>
      </trkpt>
      <trkpt lat="48.336661" lon="14.356069">
        <ele>350.716316</ele>
        <time>2026-07-05T09:39:55.000Z</time>
      </trkpt>
      <trkpt lat="48.336682" lon="14.356338">
        <ele>350.540797</ele>
        <time>2026-07-05T09:39:57.000Z</time>
      </trkpt>
      <trkpt lat="48.336717" lon="14.358248">
        <ele>350.340052</ele>
        <time>2026-07-05T09:40:11.000Z</time>
      </trkpt>
      <trkpt lat="48.336727" lon="14.359077">
        <ele>350.274396</ele>
        <time>2026-07-05T09:40:17.000Z</time>
      </trkpt>
      <trkpt lat="48.336747" lon="14.361039">
        <ele>351.43613</ele>
        <time>2026-07-05T09:40:32.000Z</time>
      </trkpt>
      <trkpt lat="48.336741" lon="14.361192">
        <ele>351.525204</ele>
        <time>2026-07-05T09:40:33.000Z</time>
      </trkpt>
      <trkpt lat="48.336775" lon="14.362311">
        <ele>352.109927</ele>
        <time>2026-07-05T09:40:41.000Z</time>
      </trkpt>
      <trkpt lat="48.336776" lon="14.362451">
        <ele>352.165467</ele>
        <time>2026-07-05T09:40:42.000Z</time>
      </trkpt>
      <trkpt lat="48.336796" lon="14.363189">
        <ele>352.447686</ele>
        <time>2026-07-05T09:40:47.000Z</time>
      </trkpt>
      <trkpt lat="48.3368" lon="14.363245">
        <ele>352.467351</ele>
        <time>2026-07-05T09:40:47.000Z</time>
      </trkpt>
      <trkpt lat="48.336858" lon="14.364375">
        <ele>352.902504</ele>
        <time>2026-07-05T09:40:55.000Z</time>
      </trkpt>
      <trkpt lat="48.336891" lon="14.364936">
        <ele>353.224832</ele>
        <time>2026-07-05T09:40:59.000Z</time>
      </trkpt>
      <trkpt lat="48.336922" lon="14.365502">
        <ele>353.592616</ele>
        <time>2026-07-05T09:41:03.000Z</time>
      </trkpt>
      <trkpt lat="48.336965" lon="14.365968">
        <ele>353.89395</ele>
        <time>2026-07-05T09:41:06.000Z</time>
      </trkpt>
      <trkpt lat="48.336963" lon="14.366104">
        <ele>353.981389</ele>
        <time>2026-07-05T09:41:07.000Z</time>
      </trkpt>
      <trkpt lat="48.337033" lon="14.367057">
        <ele>354.600404</ele>
        <time>2026-07-05T09:41:14.000Z</time>
      </trkpt>
      <trkpt lat="48.33704" lon="14.367145">
        <ele>354.648277</ele>
        <time>2026-07-05T09:41:15.000Z</time>
      </trkpt>
      <trkpt lat="48.337046" lon="14.367273">
        <ele>354.742663</ele>
        <time>2026-07-05T09:41:16.000Z</time>
      </trkpt>
      <trkpt lat="48.337065" lon="14.367472">
        <ele>354.9092</ele>
        <time>2026-07-05T09:41:17.000Z</time>
      </trkpt>
      <trkpt lat="48.337126" lon="14.368243">
        <ele>355.548724</ele>
        <time>2026-07-05T09:41:23.000Z</time>
      </trkpt>
      <trkpt lat="48.337363" lon="14.371605">
        <ele>358.267107</ele>
        <time>2026-07-05T09:41:48.000Z</time>
      </trkpt>
      <trkpt lat="48.337386" lon="14.372046">
        <ele>358.607842</ele>
        <time>2026-07-05T09:41:51.000Z</time>
      </trkpt>
      <trkpt lat="48.337442" lon="14.372988">
        <ele>359.318771</ele>
        <time>2026-07-05T09:41:58.000Z</time>
      </trkpt>
      <trkpt lat="48.337412" lon="14.373542">
        <ele>359.725325</ele>
        <time>2026-07-05T09:42:02.000Z</time>
      </trkpt>
      <trkpt lat="48.337153" lon="14.37534">
        <ele>361.114957</ele>
        <time>2026-07-05T09:42:16.000Z</time>
      </trkpt>
      <trkpt lat="48.337154" lon="14.375835">
        <ele>362.360301</ele>
        <time>2026-07-05T09:42:20.000Z</time>
      </trkpt>
      <trkpt lat="48.337229" lon="14.376165">
        <ele>363.252071</ele>
        <time>2026-07-05T09:42:23.000Z</time>
      </trkpt>
      <trkpt lat="48.337382" lon="14.376588">
        <ele>364.491062</ele>
        <time>2026-07-05T09:42:27.000Z</time>
      </trkpt>
      <trkpt lat="48.337875" lon="14.377377">
        <ele>367.150245</ele>
        <time>2026-07-05T09:42:35.000Z</time>
      </trkpt>
      <trkpt lat="48.337885" lon="14.37741">
        <ele>367.280308</ele>
        <time>2026-07-05T09:42:35.000Z</time>
      </trkpt>
      <trkpt lat="48.338097" lon="14.377755">
        <ele>368.54465</ele>
        <time>2026-07-05T09:42:38.000Z</time>
      </trkpt>
      <trkpt lat="48.338216" lon="14.378092">
        <ele>369.604701</ele>
        <time>2026-07-05T09:42:41.000Z</time>
      </trkpt>
      <trkpt lat="48.338237" lon="14.37842">
        <ele>370.519437</ele>
        <time>2026-07-05T09:42:43.000Z</time>
      </trkpt>
      <trkpt lat="48.33816" lon="14.378738">
        <ele>371.479675</ele>
        <time>2026-07-05T09:42:46.000Z</time>
      </trkpt>
      <trkpt lat="48.337978" lon="14.378977">
        <ele>372.480775</ele>
        <time>2026-07-05T09:42:49.000Z</time>
      </trkpt>
      <trkpt lat="48.337705" lon="14.379169">
        <ele>373.725537</ele>
        <time>2026-07-05T09:42:52.000Z</time>
      </trkpt>
      <trkpt lat="48.337521" lon="14.37929">
        <ele>374.604499</ele>
        <time>2026-07-05T09:42:54.000Z</time>
      </trkpt>
      <trkpt lat="48.337254" lon="14.379501">
        <ele>375.447171</ele>
        <time>2026-07-05T09:42:57.000Z</time>
      </trkpt>
      <trkpt lat="48.337076" lon="14.379704">
        <ele>375.637446</ele>
        <time>2026-07-05T09:42:59.000Z</time>
      </trkpt>
      <trkpt lat="48.336937" lon="14.379961">
        <ele>375.849186</ele>
        <time>2026-07-05T09:43:01.000Z</time>
      </trkpt>
      <trkpt lat="48.336796" lon="14.380252">
        <ele>376.060986</ele>
        <time>2026-07-05T09:43:04.000Z</time>
      </trkpt>
      <trkpt lat="48.336699" lon="14.380625">
        <ele>376.308842</ele>
        <time>2026-07-05T09:43:07.000Z</time>
      </trkpt>
      <trkpt lat="48.336595" lon="14.381128">
        <ele>376.634691</ele>
        <time>2026-07-05T09:43:11.000Z</time>
      </trkpt>
      <trkpt lat="48.336702" lon="14.380624">
        <ele>376.960516</ele>
        <time>2026-07-05T09:43:15.000Z</time>
      </trkpt>
      <trkpt lat="48.336811" lon="14.380243">
        <ele>376.387085</ele>
        <time>2026-07-05T09:43:18.000Z</time>
      </trkpt>
      <trkpt lat="48.336935" lon="14.379961">
        <ele>375.861354</ele>
        <time>2026-07-05T09:43:20.000Z</time>
      </trkpt>
      <trkpt lat="48.337081" lon="14.379704">
        <ele>375.335797</ele>
        <time>2026-07-05T09:43:22.000Z</time>
      </trkpt>
      <trkpt lat="48.337252" lon="14.379495">
        <ele>374.863519</ele>
        <time>2026-07-05T09:43:24.000Z</time>
      </trkpt>
      <trkpt lat="48.337508" lon="14.379278">
        <ele>374.171522</ele>
        <time>2026-07-05T09:43:27.000Z</time>
      </trkpt>
      <trkpt lat="48.337719" lon="14.379168">
        <ele>373.694154</ele>
        <time>2026-07-05T09:43:29.000Z</time>
      </trkpt>
      <trkpt lat="48.337979" lon="14.378979">
        <ele>373.018086</ele>
        <time>2026-07-05T09:43:32.000Z</time>
      </trkpt>
      <trkpt lat="48.338159" lon="14.378735">
        <ele>372.01469</ele>
        <time>2026-07-05T09:43:35.000Z</time>
      </trkpt>
      <trkpt lat="48.338246" lon="14.378411">
        <ele>370.911418</ele>
        <time>2026-07-05T09:43:38.000Z</time>
      </trkpt>
      <trkpt lat="48.338232" lon="14.3781">
        <ele>369.860418</ele>
        <time>2026-07-05T09:43:40.000Z</time>
      </trkpt>
      <trkpt lat="48.338098" lon="14.377756">
        <ele>368.642472</ele>
        <time>2026-07-05T09:43:43.000Z</time>
      </trkpt>
      <trkpt lat="48.337887" lon="14.377397">
        <ele>367.126594</ele>
        <time>2026-07-05T09:43:47.000Z</time>
      </trkpt>
      <trkpt lat="48.337872" lon="14.37736">
        <ele>366.961432</ele>
        <time>2026-07-05T09:43:47.000Z</time>
      </trkpt>
      <trkpt lat="48.337377" lon="14.376602">
        <ele>363.914039</ele>
        <time>2026-07-05T09:43:55.000Z</time>
      </trkpt>
      <trkpt lat="48.337217" lon="14.376163">
        <ele>363.128362</ele>
        <time>2026-07-05T09:43:59.000Z</time>
      </trkpt>
      <trkpt lat="48.337164" lon="14.375823">
        <ele>362.562861</ele>
        <time>2026-07-05T09:44:02.000Z</time>
      </trkpt>
      <trkpt lat="48.337156" lon="14.375334">
        <ele>361.773151</ele>
        <time>2026-07-05T09:44:06.000Z</time>
      </trkpt>
      <trkpt lat="48.337399" lon="14.373551">
        <ele>359.543648</ele>
        <time>2026-07-05T09:44:19.000Z</time>
      </trkpt>
      <trkpt lat="48.337435" lon="14.372975">
        <ele>359.216491</ele>
        <time>2026-07-05T09:44:23.000Z</time>
      </trkpt>
      <trkpt lat="48.337387" lon="14.372045">
        <ele>358.672853</ele>
        <time>2026-07-05T09:44:30.000Z</time>
      </trkpt>
      <trkpt lat="48.337359" lon="14.3716">
        <ele>358.420194</ele>
        <time>2026-07-05T09:44:33.000Z</time>
      </trkpt>
      <trkpt lat="48.337128" lon="14.36824">
        <ele>355.497632</ele>
        <time>2026-07-05T09:44:58.000Z</time>
      </trkpt>
      <trkpt lat="48.337059" lon="14.367477">
        <ele>354.939822</ele>
        <time>2026-07-05T09:45:04.000Z</time>
      </trkpt>
      <trkpt lat="48.337059" lon="14.367266">
        <ele>354.794551</ele>
        <time>2026-07-05T09:45:06.000Z</time>
      </trkpt>
      <trkpt lat="48.337049" lon="14.367145">
        <ele>354.69572</ele>
        <time>2026-07-05T09:45:07.000Z</time>
      </trkpt>
      <trkpt lat="48.337043" lon="14.367056">
        <ele>354.641984</ele>
        <time>2026-07-05T09:45:08.000Z</time>
      </trkpt>
      <trkpt lat="48.336975" lon="14.366112">
        <ele>353.95241</ele>
        <time>2026-07-05T09:45:15.000Z</time>
      </trkpt>
      <trkpt lat="48.336963" lon="14.365969">
        <ele>353.879005</ele>
        <time>2026-07-05T09:45:16.000Z</time>
      </trkpt>
      <trkpt lat="48.336932" lon="14.365507">
        <ele>353.626009</ele>
        <time>2026-07-05T09:45:19.000Z</time>
      </trkpt>
      <trkpt lat="48.336901" lon="14.364931">
        <ele>353.31723</ele>
        <time>2026-07-05T09:45:23.000Z</time>
      </trkpt>
      <trkpt lat="48.336858" lon="14.364375">
        <ele>353.006964</ele>
        <time>2026-07-05T09:45:27.000Z</time>
      </trkpt>
      <trkpt lat="48.3368" lon="14.363235">
        <ele>352.416712</ele>
        <time>2026-07-05T09:45:35.000Z</time>
      </trkpt>
      <trkpt lat="48.336802" lon="14.363192">
        <ele>352.394265</ele>
        <time>2026-07-05T09:45:35.000Z</time>
      </trkpt>
      <trkpt lat="48.336772" lon="14.36246">
        <ele>352.072185</ele>
        <time>2026-07-05T09:45:40.000Z</time>
      </trkpt>
      <trkpt lat="48.336774" lon="14.362305">
        <ele>352.00882</ele>
        <time>2026-07-05T09:45:41.000Z</time>
      </trkpt>
      <trkpt lat="48.33675" lon="14.361179">
        <ele>351.514281</ele>
        <time>2026-07-05T09:45:49.000Z</time>
      </trkpt>
      <trkpt lat="48.336741" lon="14.361051">
        <ele>351.450561</ele>
        <time>2026-07-05T09:45:50.000Z</time>
      </trkpt>
      <trkpt lat="48.336726" lon="14.359069">
        <ele>350.483863</ele>
        <time>2026-07-05T09:46:05.000Z</time>
      </trkpt>
      <trkpt lat="48.336719" lon="14.35824">
        <ele>350.073105</ele>
        <time>2026-07-05T09:46:11.000Z</time>
      </trkpt>
      <trkpt lat="48.336694" lon="14.356338">
        <ele>350.77779</ele>
        <time>2026-07-05T09:46:25.000Z</time>
      </trkpt>
      <trkpt lat="48.336667" lon="14.356063">
        <ele>350.915057</ele>
        <time>2026-07-05T09:46:27.000Z</time>
      </trkpt>
      <trkpt lat="48.336614" lon="14.355802">
        <ele>351.047259</ele>
        <time>2026-07-05T09:46:29.000Z</time>
      </trkpt>
      <trkpt lat="48.336465" lon="14.355358">
        <ele>351.281926</ele>
        <time>2026-07-05T09:46:33.000Z</time>
      </trkpt>
      <trkpt lat="48.336156" lon="14.354875">
        <ele>351.471556</ele>
        <time>2026-07-05T09:46:38.000Z</time>
      </trkpt>
      <trkpt lat="48.335954" lon="14.35445">
        <ele>351.617594</ele>
        <time>2026-07-05T09:46:42.000Z</time>
      </trkpt>
      <trkpt lat="48.335848" lon="14.354083">
        <ele>351.731001</ele>
        <time>2026-07-05T09:46:45.000Z</time>
      </trkpt>
      <trkpt lat="48.335798" lon="14.353739">
        <ele>351.830472</ele>
        <time>2026-07-05T09:46:48.000Z</time>
      </trkpt>
      <trkpt lat="48.335795" lon="14.353183">
        <ele>351.991683</ele>
        <time>2026-07-05T09:46:52.000Z</time>
      </trkpt>
      <trkpt lat="48.335814" lon="14.352482">
        <ele>351.240733</ele>
        <time>2026-07-05T09:46:57.000Z</time>
      </trkpt>
      <trkpt lat="48.335814" lon="14.352396">
        <ele>351.100201</ele>
        <time>2026-07-05T09:46:58.000Z</time>
      </trkpt>
      <trkpt lat="48.335838" lon="14.351424">
        <ele>349.637514</ele>
        <time>2026-07-05T09:47:05.000Z</time>
      </trkpt>
      <trkpt lat="48.335837" lon="14.351067">
        <ele>349.104083</ele>
        <time>2026-07-05T09:47:08.000Z</time>
      </trkpt>
      <trkpt lat="48.335848" lon="14.350492">
        <ele>348.235351</ele>
        <time>2026-07-05T09:47:12.000Z</time>
      </trkpt>
      <trkpt lat="48.335902" lon="14.34999">
        <ele>346.87415</ele>
        <time>2026-07-05T09:47:16.000Z</time>
      </trkpt>
      <trkpt lat="48.336747" lon="14.347152">
        <ele>335.852685</ele>
        <time>2026-07-05T09:47:39.000Z</time>
      </trkpt>
      <trkpt lat="48.336858" lon="14.346567">
        <ele>333.078851</ele>
        <time>2026-07-05T09:47:44.000Z</time>
      </trkpt>
      <trkpt lat="48.336905" lon="14.345553">
        <ele>328.524444</ele>
        <time>2026-07-05T09:47:52.000Z</time>
      </trkpt>
      <trkpt lat="48.336959" lon="14.345181">
        <ele>326.806338</ele>
        <time>2026-07-05T09:47:55.000Z</time>
      </trkpt>
      <trkpt lat="48.337077" lon="14.344865">
        <ele>325.350643</ele>
        <time>2026-07-05T09:47:58.000Z</time>
      </trkpt>
      <trkpt lat="48.337247" lon="14.344643">
        <ele>324.00909</ele>
        <time>2026-07-05T09:48:01.000Z</time>
      </trkpt>
      <trkpt lat="48.337709" lon="14.344194">
        <ele>320.523627</ele>
        <time>2026-07-05T09:48:07.000Z</time>
      </trkpt>
      <trkpt lat="48.338406" lon="14.343537">
        <ele>315.636072</ele>
        <time>2026-07-05T09:48:16.000Z</time>
      </trkpt>
      <trkpt lat="48.338426" lon="14.343503">
        <ele>315.483386</ele>
        <time>2026-07-05T09:48:16.000Z</time>
      </trkpt>
      <trkpt lat="48.338447" lon="14.343452">
        <ele>315.32786</ele>
        <time>2026-07-05T09:48:16.000Z</time>
      </trkpt>
      <trkpt lat="48.338543" lon="14.34315">
        <ele>314.559235</ele>
        <time>2026-07-05T09:48:18.000Z</time>
      </trkpt>
      <trkpt lat="48.33857" lon="14.342905">
        <ele>314.000579</ele>
        <time>2026-07-05T09:48:20.000Z</time>
      </trkpt>
      <trkpt lat="48.338492" lon="14.342547">
        <ele>313.132569</ele>
        <time>2026-07-05T09:48:23.000Z</time>
      </trkpt>
      <trkpt lat="48.338431" lon="14.342419">
        <ele>312.765777</ele>
        <time>2026-07-05T09:48:24.000Z</time>
      </trkpt>
      <trkpt lat="48.338251" lon="14.342156">
        <ele>311.89097</ele>
        <time>2026-07-05T09:48:27.000Z</time>
      </trkpt>
      <trkpt lat="48.338022" lon="14.341846">
        <ele>310.811708</ele>
        <time>2026-07-05T09:48:30.000Z</time>
      </trkpt>
      <trkpt lat="48.337953" lon="14.341744">
        <ele>310.491299</ele>
        <time>2026-07-05T09:48:31.000Z</time>
      </trkpt>
      <trkpt lat="48.337814" lon="14.341546">
        <ele>309.831838</ele>
        <time>2026-07-05T09:48:33.000Z</time>
      </trkpt>
      <trkpt lat="48.337844" lon="14.341499">
        <ele>309.702512</ele>
        <time>2026-07-05T09:48:33.000Z</time>
      </trkpt>
      <trkpt lat="48.337564" lon="14.341087">
        <ele>307.439137</ele>
        <time>2026-07-05T09:48:37.000Z</time>
      </trkpt>
      <trkpt lat="48.3375" lon="14.340961">
        <ele>306.854291</ele>
        <time>2026-07-05T09:48:38.000Z</time>
      </trkpt>
      <trkpt lat="48.337451" lon="14.340686">
        <ele>305.696849</ele>
        <time>2026-07-05T09:48:40.000Z</time>
      </trkpt>
      <trkpt lat="48.337402" lon="14.339261">
        <ele>300.007463</ele>
        <time>2026-07-05T09:48:51.000Z</time>
      </trkpt>
      <trkpt lat="48.337408" lon="14.339257">
        <ele>299.991413</ele>
        <time>2026-07-05T09:48:51.000Z</time>
      </trkpt>
      <trkpt lat="48.337364" lon="14.338134">
        <ele>296.143977</ele>
        <time>2026-07-05T09:48:59.000Z</time>
      </trkpt>
      <trkpt lat="48.337255" lon="14.337435">
        <ele>293.879843</ele>
        <time>2026-07-05T09:49:04.000Z</time>
      </trkpt>
      <trkpt lat="48.337088" lon="14.336861">
        <ele>291.907638</ele>
        <time>2026-07-05T09:49:09.000Z</time>
      </trkpt>
      <trkpt lat="48.337093" lon="14.336736">
        <ele>291.530892</ele>
        <time>2026-07-05T09:49:10.000Z</time>
      </trkpt>
      <trkpt lat="48.337074" lon="14.336725">
        <ele>291.460288</ele>
        <time>2026-07-05T09:49:10.000Z</time>
      </trkpt>
      <trkpt lat="48.337049" lon="14.336623">
        <ele>291.143871</ele>
        <time>2026-07-05T09:49:11.000Z</time>
      </trkpt>
      <trkpt lat="48.336949" lon="14.336719">
        <ele>290.606293</ele>
        <time>2026-07-05T09:49:12.000Z</time>
      </trkpt>
      <trkpt lat="48.336202" lon="14.335336">
        <ele>287.998427</ele>
        <time>2026-07-05T09:49:25.000Z</time>
      </trkpt>
      <trkpt lat="48.336107" lon="14.335164">
        <ele>287.703284</ele>
        <time>2026-07-05T09:49:27.000Z</time>
      </trkpt>
      <trkpt lat="48.336067" lon="14.335082">
        <ele>287.577288</ele>
        <time>2026-07-05T09:49:28.000Z</time>
      </trkpt>
      <trkpt lat="48.336" lon="14.334973">
        <ele>287.371787</ele>
        <time>2026-07-05T09:49:29.000Z</time>
      </trkpt>
      <trkpt lat="48.335299" lon="14.333656">
        <ele>286.004835</ele>
        <time>2026-07-05T09:49:41.000Z</time>
      </trkpt>
      <trkpt lat="48.335098" lon="14.333327">
        <ele>285.759444</ele>
        <time>2026-07-05T09:49:44.000Z</time>
      </trkpt>
      <trkpt lat="48.334832" lon="14.333141">
        <ele>285.519139</ele>
        <time>2026-07-05T09:49:47.000Z</time>
      </trkpt>
      <trkpt lat="48.334641" lon="14.333099">
        <ele>285.369975</ele>
        <time>2026-07-05T09:49:49.000Z</time>
      </trkpt>
      <trkpt lat="48.334411" lon="14.333131">
        <ele>285.172077</ele>
        <time>2026-07-05T09:49:52.000Z</time>
      </trkpt>
      <trkpt lat="48.333914" lon="14.33317">
        <ele>284.857445</ele>
        <time>2026-07-05T09:49:58.000Z</time>
      </trkpt>
      <trkpt lat="48.333359" lon="14.332906">
        <ele>284.48837</ele>
        <time>2026-07-05T09:50:04.000Z</time>
      </trkpt>
      <trkpt lat="48.333257" lon="14.332874">
        <ele>284.418224</ele>
        <time>2026-07-05T09:50:05.000Z</time>
      </trkpt>
      <trkpt lat="48.332577" lon="14.332932">
        <ele>283.89429</ele>
        <time>2026-07-05T09:50:13.000Z</time>
      </trkpt>
      <trkpt lat="48.331748" lon="14.332868">
        <ele>278.232234</ele>
        <time>2026-07-05T09:50:22.000Z</time>
      </trkpt>
      <trkpt lat="48.330983" lon="14.332939">
        <ele>273.101635</ele>
        <time>2026-07-05T09:50:31.000Z</time>
      </trkpt>
      <trkpt lat="48.330874" lon="14.332987">
        <ele>272.349861</ele>
        <time>2026-07-05T09:50:32.000Z</time>
      </trkpt>
      <trkpt lat="48.33076" lon="14.333031">
        <ele>271.609736</ele>
        <time>2026-07-05T09:50:33.000Z</time>
      </trkpt>
      <trkpt lat="48.330542" lon="14.333156">
        <ele>270.255865</ele>
        <time>2026-07-05T09:50:36.000Z</time>
      </trkpt>
      <trkpt lat="48.330057" lon="14.333524">
        <ele>267.338804</ele>
        <time>2026-07-05T09:50:42.000Z</time>
      </trkpt>
      <trkpt lat="48.330026" lon="14.333541">
        <ele>267.086448</ele>
        <time>2026-07-05T09:50:42.000Z</time>
      </trkpt>
      <trkpt lat="48.329778" lon="14.333726">
        <ele>265.653976</ele>
        <time>2026-07-05T09:50:45.000Z</time>
      </trkpt>
      <trkpt lat="48.329639" lon="14.333841">
        <ele>264.798432</ele>
        <time>2026-07-05T09:50:47.000Z</time>
      </trkpt>
      <trkpt lat="48.32957" lon="14.333886">
        <ele>264.364089</ele>
        <time>2026-07-05T09:50:48.000Z</time>
      </trkpt>
      <trkpt lat="48.329195" lon="14.334187">
        <ele>261.995913</ele>
        <time>2026-07-05T09:50:53.000Z</time>
      </trkpt>
      <trkpt lat="48.328861" lon="14.334423">
        <ele>261.517336</ele>
        <time>2026-07-05T09:50:57.000Z</time>
      </trkpt>
      <trkpt lat="48.328541" lon="14.334545">
        <ele>261.140258</ele>
        <time>2026-07-05T09:51:01.000Z</time>
      </trkpt>
      <trkpt lat="48.328386" lon="14.33459">
        <ele>260.948626</ele>
        <time>2026-07-05T09:51:03.000Z</time>
      </trkpt>
      <trkpt lat="48.328315" lon="14.334578">
        <ele>260.874434</ele>
        <time>2026-07-05T09:51:04.000Z</time>
      </trkpt>
      <trkpt lat="48.328135" lon="14.334572">
        <ele>260.657319</ele>
        <time>2026-07-05T09:51:06.000Z</time>
      </trkpt>
      <trkpt lat="48.327742" lon="14.33451">
        <ele>260.196981</ele>
        <time>2026-07-05T09:51:10.000Z</time>
      </trkpt>
      <trkpt lat="48.327665" lon="14.334498">
        <ele>260.108301</ele>
        <time>2026-07-05T09:51:11.000Z</time>
      </trkpt>
      <trkpt lat="48.327649" lon="14.33457">
        <ele>260.04713</ele>
        <time>2026-07-05T09:51:12.000Z</time>
      </trkpt>
      <trkpt lat="48.327646" lon="14.334642">
        <ele>259.996057</ele>
        <time>2026-07-05T09:51:13.000Z</time>
      </trkpt>
      <trkpt lat="48.327646" lon="14.334689">
        <ele>259.949578</ele>
        <time>2026-07-05T09:51:13.000Z</time>
      </trkpt>
      <trkpt lat="48.327648" lon="14.334822">
        <ele>259.859782</ele>
        <time>2026-07-05T09:51:14.000Z</time>
      </trkpt>
      <trkpt lat="48.327623" lon="14.335079">
        <ele>259.799698</ele>
        <time>2026-07-05T09:51:16.000Z</time>
      </trkpt>
      <trkpt lat="48.327544" lon="14.335396">
        <ele>259.734598</ele>
        <time>2026-07-05T09:51:19.000Z</time>
      </trkpt>
      <trkpt lat="48.327427" lon="14.33569">
        <ele>259.668601</ele>
        <time>2026-07-05T09:51:22.000Z</time>
      </trkpt>
      <trkpt lat="48.3273" lon="14.335866">
        <ele>259.618091</ele>
        <time>2026-07-05T09:51:24.000Z</time>
      </trkpt>
      <trkpt lat="48.327076" lon="14.336129">
        <ele>259.536892</ele>
        <time>2026-07-05T09:51:27.000Z</time>
      </trkpt>
      <trkpt lat="48.326937" lon="14.33635">
        <ele>259.481891</ele>
        <time>2026-07-05T09:51:29.000Z</time>
      </trkpt>
      <trkpt lat="48.326584" lon="14.337474">
        <ele>259.168052</ele>
        <time>2026-07-05T09:51:38.000Z</time>
      </trkpt>
      <trkpt lat="48.326541" lon="14.337589">
        <ele>259.120702</ele>
        <time>2026-07-05T09:51:39.000Z</time>
      </trkpt>
      <trkpt lat="48.326509" lon="14.337656">
        <ele>259.091744</ele>
        <time>2026-07-05T09:51:40.000Z</time>
      </trkpt>
      <trkpt lat="48.326377" lon="14.337934">
        <ele>258.967025</ele>
        <time>2026-07-05T09:51:43.000Z</time>
      </trkpt>
      <trkpt lat="48.326297" lon="14.338081">
        <ele>258.898078</ele>
        <time>2026-07-05T09:51:44.000Z</time>
      </trkpt>
      <trkpt lat="48.326239" lon="14.338148">
        <ele>258.856726</ele>
        <time>2026-07-05T09:51:45.000Z</time>
      </trkpt>
      <trkpt lat="48.326152" lon="14.33826">
        <ele>258.799624</ele>
        <time>2026-07-05T09:51:46.000Z</time>
      </trkpt>
      <trkpt lat="48.326092" lon="14.338312">
        <ele>258.762808</ele>
        <time>2026-07-05T09:51:47.000Z</time>
      </trkpt>
      <trkpt lat="48.325858" lon="14.338511">
        <ele>258.617541</ele>
        <time>2026-07-05T09:51:50.000Z</time>
      </trkpt>
      <trkpt lat="48.325736" lon="14.338585">
        <ele>258.546426</ele>
        <time>2026-07-05T09:51:51.000Z</time>
      </trkpt>
      <trkpt lat="48.324787" lon="14.3391">
        <ele>258.468291</ele>
        <time>2026-07-05T09:52:02.000Z</time>
      </trkpt>
      <trkpt lat="48.324672" lon="14.339185">
        <ele>258.489104</ele>
        <time>2026-07-05T09:52:03.000Z</time>
      </trkpt>
      <trkpt lat="48.324594" lon="14.339222">
        <ele>258.502534</ele>
        <time>2026-07-05T09:52:04.000Z</time>
      </trkpt>
      <trkpt lat="48.324443" lon="14.339336">
        <ele>258.525893</ele>
        <time>2026-07-05T09:52:06.000Z</time>
      </trkpt>
      <trkpt lat="48.324117" lon="14.339587">
        <ele>258.584465</ele>
        <time>2026-07-05T09:52:10.000Z</time>
      </trkpt>
      <trkpt lat="48.324071" lon="14.339623">
        <ele>258.593532</ele>
        <time>2026-07-05T09:52:11.000Z</time>
      </trkpt>
      <trkpt lat="48.323872" lon="14.339794">
        <ele>258.628695</ele>
        <time>2026-07-05T09:52:14.000Z</time>
      </trkpt>
      <trkpt lat="48.323604" lon="14.340003">
        <ele>259.053392</ele>
        <time>2026-07-05T09:52:17.000Z</time>
      </trkpt>
      <trkpt lat="48.323565" lon="14.340031">
        <ele>259.136879</ele>
        <time>2026-07-05T09:52:17.000Z</time>
      </trkpt>
      <trkpt lat="48.323416" lon="14.340134">
        <ele>259.464384</ele>
        <time>2026-07-05T09:52:19.000Z</time>
      </trkpt>
      <trkpt lat="48.323337" lon="14.34019">
        <ele>259.636052</ele>
        <time>2026-07-05T09:52:20.000Z</time>
      </trkpt>
      <trkpt lat="48.323116" lon="14.34033">
        <ele>260.079949</ele>
        <time>2026-07-05T09:52:23.000Z</time>
      </trkpt>
      <trkpt lat="48.323077" lon="14.34037">
        <ele>260.190018</ele>
        <time>2026-07-05T09:52:24.000Z</time>
      </trkpt>
      <trkpt lat="48.322947" lon="14.340441">
        <ele>260.449506</ele>
        <time>2026-07-05T09:52:26.000Z</time>
      </trkpt>
      <trkpt lat="48.322892" lon="14.340478">
        <ele>260.588931</ele>
        <time>2026-07-05T09:52:27.000Z</time>
      </trkpt>
      <trkpt lat="48.322824" lon="14.34051">
        <ele>260.715442</ele>
        <time>2026-07-05T09:52:28.000Z</time>
      </trkpt>
      <trkpt lat="48.322769" lon="14.340548">
        <ele>260.843947</ele>
        <time>2026-07-05T09:52:29.000Z</time>
      </trkpt>
      <trkpt lat="48.322734" lon="14.34056">
        <ele>260.893859</ele>
        <time>2026-07-05T09:52:29.000Z</time>
      </trkpt>
      <trkpt lat="48.322526" lon="14.340657">
        <ele>261.342775</ele>
        <time>2026-07-05T09:52:31.000Z</time>
      </trkpt>
      <trkpt lat="48.322206" lon="14.340745">
        <ele>261.963141</ele>
        <time>2026-07-05T09:52:35.000Z</time>
      </trkpt>
      <trkpt lat="48.32216" lon="14.340763">
        <ele>262.071722</ele>
        <time>2026-07-05T09:52:36.000Z</time>
      </trkpt>
      <trkpt lat="48.322124" lon="14.340769">
        <ele>262.130158</ele>
        <time>2026-07-05T09:52:36.000Z</time>
      </trkpt>
      <trkpt lat="48.32177" lon="14.340873">
        <ele>262.10567</ele>
        <time>2026-07-05T09:52:40.000Z</time>
      </trkpt>
      <trkpt lat="48.321687" lon="14.340898">
        <ele>262.082647</ele>
        <time>2026-07-05T09:52:41.000Z</time>
      </trkpt>
      <trkpt lat="48.321453" lon="14.340966">
        <ele>262.017217</ele>
        <time>2026-07-05T09:52:44.000Z</time>
      </trkpt>
      <trkpt lat="48.321113" lon="14.340911">
        <ele>261.929351</ele>
        <time>2026-07-05T09:52:48.000Z</time>
      </trkpt>
      <trkpt lat="48.320899" lon="14.340757">
        <ele>261.863737</ele>
        <time>2026-07-05T09:52:51.000Z</time>
      </trkpt>
      <trkpt lat="48.320622" lon="14.340461">
        <ele>261.771184</ele>
        <time>2026-07-05T09:52:55.000Z</time>
      </trkpt>
      <trkpt lat="48.320286" lon="14.340102">
        <ele>261.07504</ele>
        <time>2026-07-05T09:53:00.000Z</time>
      </trkpt>
      <trkpt lat="48.320016" lon="14.33981">
        <ele>259.976811</ele>
        <time>2026-07-05T09:53:04.000Z</time>
      </trkpt>
      <trkpt lat="48.319782" lon="14.339579">
        <ele>259.056082</ele>
        <time>2026-07-05T09:53:07.000Z</time>
      </trkpt>
      <trkpt lat="48.319696" lon="14.339504">
        <ele>258.713115</ele>
        <time>2026-07-05T09:53:08.000Z</time>
      </trkpt>
      <trkpt lat="48.319542" lon="14.339425">
        <ele>258.161907</ele>
        <time>2026-07-05T09:53:10.000Z</time>
      </trkpt>
      <trkpt lat="48.319448" lon="14.339365">
        <ele>257.85766</ele>
        <time>2026-07-05T09:53:11.000Z</time>
      </trkpt>
      <trkpt lat="48.319233" lon="14.339245">
        <ele>257.093942</ele>
        <time>2026-07-05T09:53:14.000Z</time>
      </trkpt>
      <trkpt lat="48.319175" lon="14.339199">
        <ele>256.867996</ele>
        <time>2026-07-05T09:53:15.000Z</time>
      </trkpt>
      <trkpt lat="48.319129" lon="14.339187">
        <ele>256.710369</ele>
        <time>2026-07-05T09:53:16.000Z</time>
      </trkpt>
      <trkpt lat="48.31907" lon="14.339161">
        <ele>256.538036</ele>
        <time>2026-07-05T09:53:17.000Z</time>
      </trkpt>
      <trkpt lat="48.31888" lon="14.339049">
        <ele>255.862037</ele>
        <time>2026-07-05T09:53:19.000Z</time>
      </trkpt>
      <trkpt lat="48.318654" lon="14.338924">
        <ele>256.009494</ele>
        <time>2026-07-05T09:53:22.000Z</time>
      </trkpt>
      <trkpt lat="48.318286" lon="14.338718">
        <ele>256.466808</ele>
        <time>2026-07-05T09:53:26.000Z</time>
      </trkpt>
      <trkpt lat="48.317458" lon="14.338251">
        <ele>257.52146</ele>
        <time>2026-07-05T09:53:36.000Z</time>
      </trkpt>
      <trkpt lat="48.317217" lon="14.338112">
        <ele>257.834512</ele>
        <time>2026-07-05T09:53:39.000Z</time>
      </trkpt>
      <trkpt lat="48.316647" lon="14.337785">
        <ele>259.819949</ele>
        <time>2026-07-05T09:53:46.000Z</time>
      </trkpt>
      <trkpt lat="48.315872" lon="14.337272">
        <ele>262.692234</ele>
        <time>2026-07-05T09:53:55.000Z</time>
      </trkpt>
      <trkpt lat="48.31567" lon="14.337111">
        <ele>263.481258</ele>
        <time>2026-07-05T09:53:58.000Z</time>
      </trkpt>
      <trkpt lat="48.315594" lon="14.337037">
        <ele>263.797913</ele>
        <time>2026-07-05T09:53:59.000Z</time>
      </trkpt>
      <trkpt lat="48.315309" lon="14.336763">
        <ele>263.74208</ele>
        <time>2026-07-05T09:54:03.000Z</time>
      </trkpt>
      <trkpt lat="48.315265" lon="14.336727">
        <ele>263.686666</ele>
        <time>2026-07-05T09:54:04.000Z</time>
      </trkpt>
      <trkpt lat="48.314884" lon="14.336268">
        <ele>263.161161</ele>
        <time>2026-07-05T09:54:09.000Z</time>
      </trkpt>
      <trkpt lat="48.314501" lon="14.335815">
        <ele>262.615124</ele>
        <time>2026-07-05T09:54:14.000Z</time>
      </trkpt>
      <trkpt lat="48.314251" lon="14.335577">
        <ele>262.300697</ele>
        <time>2026-07-05T09:54:17.000Z</time>
      </trkpt>
      <trkpt lat="48.313891" lon="14.335307">
        <ele>261.449597</ele>
        <time>2026-07-05T09:54:21.000Z</time>
      </trkpt>
      <trkpt lat="48.313636" lon="14.335194">
        <ele>260.587533</ele>
        <time>2026-07-05T09:54:24.000Z</time>
      </trkpt>
      <trkpt lat="48.31336" lon="14.335103">
        <ele>259.650541</ele>
        <time>2026-07-05T09:54:27.000Z</time>
      </trkpt>
      <trkpt lat="48.313106" lon="14.335044">
        <ele>258.835044</ele>
        <time>2026-07-05T09:54:30.000Z</time>
      </trkpt>
      <trkpt lat="48.312748" lon="14.335043">
        <ele>257.68029</ele>
        <time>2026-07-05T09:54:34.000Z</time>
      </trkpt>
      <trkpt lat="48.312686" lon="14.335057">
        <ele>257.485917</ele>
        <time>2026-07-05T09:54:35.000Z</time>
      </trkpt>
      <trkpt lat="48.312275" lon="14.335148">
        <ele>256.265568</ele>
        <time>2026-07-05T09:54:40.000Z</time>
      </trkpt>
      <trkpt lat="48.31175" lon="14.335427">
        <ele>256.706989</ele>
        <time>2026-07-05T09:54:46.000Z</time>
      </trkpt>
      <trkpt lat="48.311026" lon="14.335864">
        <ele>257.321068</ele>
        <time>2026-07-05T09:54:55.000Z</time>
      </trkpt>
      <trkpt lat="48.310629" lon="14.336051">
        <ele>257.643338</ele>
        <time>2026-07-05T09:55:00.000Z</time>
      </trkpt>
      <trkpt lat="48.310115" lon="14.33621">
        <ele>258.127656</ele>
        <time>2026-07-05T09:55:06.000Z</time>
      </trkpt>
      <trkpt lat="48.30944" lon="14.33635">
        <ele>258.750408</ele>
        <time>2026-07-05T09:55:14.000Z</time>
      </trkpt>
      <trkpt lat="48.308981" lon="14.336431">
        <ele>259.16389</ele>
        <time>2026-07-05T09:55:19.000Z</time>
      </trkpt>
      <trkpt lat="48.308755" lon="14.336477">
        <ele>258.997988</ele>
        <time>2026-07-05T09:55:22.000Z</time>
      </trkpt>
      <trkpt lat="48.308678" lon="14.336492">
        <ele>258.757092</ele>
        <time>2026-07-05T09:55:23.000Z</time>
      </trkpt>
      <trkpt lat="48.308666" lon="14.336326">
        <ele>258.365375</ele>
        <time>2026-07-05T09:55:24.000Z</time>
      </trkpt>
      <trkpt lat="48.308639" lon="14.33614">
        <ele>257.95354</ele>
        <time>2026-07-05T09:55:25.000Z</time>
      </trkpt>
      <trkpt lat="48.30873" lon="14.336146">
        <ele>257.680463</ele>
        <time>2026-07-05T09:55:26.000Z</time>
      </trkpt>
      <trkpt lat="48.308818" lon="14.336212">
        <ele>257.304131</ele>
        <time>2026-07-05T09:55:27.000Z</time>
      </trkpt>
      <trkpt lat="48.308935" lon="14.336306">
        <ele>256.867908</ele>
        <time>2026-07-05T09:55:28.000Z</time>
      </trkpt>
      <trkpt lat="48.308811" lon="14.336218">
        <ele>256.431672</ele>
        <time>2026-07-05T09:55:30.000Z</time>
      </trkpt>
      <trkpt lat="48.308725" lon="14.336141">
        <ele>256.055319</ele>
        <time>2026-07-05T09:55:31.000Z</time>
      </trkpt>
      <trkpt lat="48.308634" lon="14.336134">
        <ele>255.782263</ele>
        <time>2026-07-05T09:55:32.000Z</time>
      </trkpt>
      <trkpt lat="48.308595" lon="14.335786">
        <ele>254.970008</ele>
        <time>2026-07-05T09:55:35.000Z</time>
      </trkpt>
      <trkpt lat="48.308673" lon="14.335741">
        <ele>254.660116</ele>
        <time>2026-07-05T09:55:36.000Z</time>
      </trkpt>
      <trkpt lat="48.308689" lon="14.335724">
        <ele>254.596985</ele>
        <time>2026-07-05T09:55:36.000Z</time>
      </trkpt>
      <trkpt lat="48.308763" lon="14.335691">
        <ele>254.320648</ele>
        <time>2026-07-05T09:55:37.000Z</time>
      </trkpt>
      <trkpt lat="48.308742" lon="14.335598">
        <ele>254.113521</ele>
        <time>2026-07-05T09:55:38.000Z</time>
      </trkpt>
      <trkpt lat="48.308853" lon="14.335548">
        <ele>253.712782</ele>
        <time>2026-07-05T09:55:39.000Z</time>
      </trkpt>
      <trkpt lat="48.309987" lon="14.335095">
        <ele>252.471748</ele>
        <time>2026-07-05T09:55:52.000Z</time>
      </trkpt>
      <trkpt lat="48.310817" lon="14.334757">
        <ele>251.976806</ele>
        <time>2026-07-05T09:56:02.000Z</time>
      </trkpt>
      <trkpt lat="48.311741" lon="14.334355">
        <ele>252.546428</ele>
        <time>2026-07-05T09:56:13.000Z</time>
      </trkpt>
      <trkpt lat="48.31349" lon="14.33347">
        <ele>253.501937</ele>
        <time>2026-07-05T09:56:34.000Z</time>
      </trkpt>
      <trkpt lat="48.314142" lon="14.333057">
        <ele>253.839679</ele>
        <time>2026-07-05T09:56:42.000Z</time>
      </trkpt>
      <trkpt lat="48.316618" lon="14.331076">
        <ele>253.191609</ele>
        <time>2026-07-05T09:57:13.000Z</time>
      </trkpt>
      <trkpt lat="48.316697" lon="14.330936">
        <ele>253.153796</ele>
        <time>2026-07-05T09:57:14.000Z</time>
      </trkpt>
      <trkpt lat="48.316921" lon="14.330653">
        <ele>253.065793</ele>
        <time>2026-07-05T09:57:17.000Z</time>
      </trkpt>
      <trkpt lat="48.318615" lon="14.329323">
        <ele>252.892023929</ele>
        <time>2026-07-05T09:57:38.000Z</time>
      </trkpt>
      <trkpt lat="48.319009" lon="14.329015">
        <ele>252.851645327</ele>
        <time>2026-07-05T09:57:43.000Z</time>
      </trkpt>
      <trkpt lat="48.31913" lon="14.328904">
        <ele>252.838756989</ele>
        <time>2026-07-05T09:57:45.000Z</time>
      </trkpt>
      <trkpt lat="48.319134" lon="14.328913">
        <ele>252.83810242</ele>
        <time>2026-07-05T09:57:45.000Z</time>
      </trkpt>
    </trkseg>
  </trk>
</gpx>

<!--
Performance optimized by W3 Total Cache. Learn more: https://www.boldgrid.com/w3-total-cache/?utm_source=w3tc&utm_medium=footer_comment&utm_campaign=free_plugin

Page Caching using Disk: Enhanced{w3tc_pagecache_reject_reason} 

Served from: www.aquabike.world @ 2026-05-08 02:06:44 by W3 Total Cache
-->